<?xml version="1.0" encoding="UTF-8" standalone="no" ?>
<gpx xmlns="http://www.topografix.com/GPX/1/1" xmlns:xsi="http://www.w3.org/2001/XMLSchema-instance" xsi:schemaLocation="http://www.topografix.com/GPX/1/1 http://www.topografix.com/GPX/1/1/gpx.xsd" version="1.1" creator="VisuGPX - https://www.visugpx.com">
  <metadata>
    <name>Reculée de Baumes-les-Messieurs</name>
    <desc><![CDATA[Randonnée pédestre effectuée le 17 août 2020]]></desc>
  </metadata>
  <trk>
    <name><![CDATA[17 août 2020 à 09:03:46]]></name>
    <trkseg>
      <trkpt lat="46.71262" lon="5.63633">
        <ele>291</ele>
        <time>2020-08-17T07:03:46Z</time>
      </trkpt>
      <trkpt lat="46.71261" lon="5.63631">
        <ele>291</ele>
        <time>2020-08-17T07:03:47Z</time>
      </trkpt>
      <trkpt lat="46.71255" lon="5.63611">
        <ele>291</ele>
        <time>2020-08-17T07:04:31Z</time>
      </trkpt>
      <trkpt lat="46.71255" lon="5.636">
        <ele>291</ele>
        <time>2020-08-17T07:05:40Z</time>
      </trkpt>
      <trkpt lat="46.71256" lon="5.63591">
        <ele>291</ele>
        <time>2020-08-17T07:05:45Z</time>
      </trkpt>
      <trkpt lat="46.71255" lon="5.63583">
        <ele>291</ele>
        <time>2020-08-17T07:05:51Z</time>
      </trkpt>
      <trkpt lat="46.71244" lon="5.6358">
        <ele>292</ele>
        <time>2020-08-17T07:06:15Z</time>
      </trkpt>
      <trkpt lat="46.7123" lon="5.6358">
        <ele>291</ele>
        <time>2020-08-17T07:06:29Z</time>
      </trkpt>
      <trkpt lat="46.71224" lon="5.63577">
        <ele>291</ele>
        <time>2020-08-17T07:06:34Z</time>
      </trkpt>
      <trkpt lat="46.71216" lon="5.63566">
        <ele>291</ele>
        <time>2020-08-17T07:06:44Z</time>
      </trkpt>
      <trkpt lat="46.71212" lon="5.6356">
        <ele>292</ele>
        <time>2020-08-17T07:06:50Z</time>
      </trkpt>
      <trkpt lat="46.7121" lon="5.63552">
        <ele>292</ele>
        <time>2020-08-17T07:06:55Z</time>
      </trkpt>
      <trkpt lat="46.71206" lon="5.63545">
        <ele>293</ele>
        <time>2020-08-17T07:07:01Z</time>
      </trkpt>
      <trkpt lat="46.71198" lon="5.63525">
        <ele>295</ele>
        <time>2020-08-17T07:07:19Z</time>
      </trkpt>
      <trkpt lat="46.71194" lon="5.63516">
        <ele>296</ele>
        <time>2020-08-17T07:07:27Z</time>
      </trkpt>
      <trkpt lat="46.71184" lon="5.63486">
        <ele>300</ele>
        <time>2020-08-17T07:07:56Z</time>
      </trkpt>
      <trkpt lat="46.71184" lon="5.63475">
        <ele>301</ele>
        <time>2020-08-17T07:08:04Z</time>
      </trkpt>
      <trkpt lat="46.71181" lon="5.63457">
        <ele>303</ele>
        <time>2020-08-17T07:08:21Z</time>
      </trkpt>
      <trkpt lat="46.71149" lon="5.63444">
        <ele>308</ele>
        <time>2020-08-17T07:08:53Z</time>
      </trkpt>
      <trkpt lat="46.71145" lon="5.63456">
        <ele>309</ele>
        <time>2020-08-17T07:09:17Z</time>
      </trkpt>
      <trkpt lat="46.71139" lon="5.63458">
        <ele>310</ele>
        <time>2020-08-17T07:09:23Z</time>
      </trkpt>
      <trkpt lat="46.71126" lon="5.63467">
        <ele>312</ele>
        <time>2020-08-17T07:09:39Z</time>
      </trkpt>
      <trkpt lat="46.71122" lon="5.63472">
        <ele>313</ele>
        <time>2020-08-17T07:09:49Z</time>
      </trkpt>
      <trkpt lat="46.71105" lon="5.6348">
        <ele>318</ele>
        <time>2020-08-17T07:12:00Z</time>
      </trkpt>
      <trkpt lat="46.71087" lon="5.63479">
        <ele>324</ele>
        <time>2020-08-17T07:12:35Z</time>
      </trkpt>
      <trkpt lat="46.71077" lon="5.63476">
        <ele>327</ele>
        <time>2020-08-17T07:12:50Z</time>
      </trkpt>
      <trkpt lat="46.71065" lon="5.63461">
        <ele>331</ele>
        <time>2020-08-17T07:13:17Z</time>
      </trkpt>
      <trkpt lat="46.71068" lon="5.6345">
        <ele>334</ele>
        <time>2020-08-17T07:13:37Z</time>
      </trkpt>
      <trkpt lat="46.71063" lon="5.63438">
        <ele>336</ele>
        <time>2020-08-17T07:13:52Z</time>
      </trkpt>
      <trkpt lat="46.71054" lon="5.6343">
        <ele>338</ele>
        <time>2020-08-17T07:14:05Z</time>
      </trkpt>
      <trkpt lat="46.71039" lon="5.63418">
        <ele>344</ele>
        <time>2020-08-17T07:14:37Z</time>
      </trkpt>
      <trkpt lat="46.7103" lon="5.63416">
        <ele>346</ele>
        <time>2020-08-17T07:14:53Z</time>
      </trkpt>
      <trkpt lat="46.71024" lon="5.63419">
        <ele>348</ele>
        <time>2020-08-17T07:15:04Z</time>
      </trkpt>
      <trkpt lat="46.71016" lon="5.63414">
        <ele>350</ele>
        <time>2020-08-17T07:15:17Z</time>
      </trkpt>
      <trkpt lat="46.71017" lon="5.63414">
        <ele>351</ele>
        <time>2020-08-17T07:16:39Z</time>
      </trkpt>
      <trkpt lat="46.71009" lon="5.6341">
        <ele>350</ele>
        <time>2020-08-17T07:17:11Z</time>
      </trkpt>
      <trkpt lat="46.70992" lon="5.63401">
        <ele>353</ele>
        <time>2020-08-17T07:17:46Z</time>
      </trkpt>
      <trkpt lat="46.70985" lon="5.63397">
        <ele>354</ele>
        <time>2020-08-17T07:17:59Z</time>
      </trkpt>
      <trkpt lat="46.70974" lon="5.63397">
        <ele>354</ele>
        <time>2020-08-17T07:18:10Z</time>
      </trkpt>
      <trkpt lat="46.70945" lon="5.6339">
        <ele>357</ele>
        <time>2020-08-17T07:18:39Z</time>
      </trkpt>
      <trkpt lat="46.70922" lon="5.63375">
        <ele>359</ele>
        <time>2020-08-17T07:19:03Z</time>
      </trkpt>
      <trkpt lat="46.70899" lon="5.6337">
        <ele>360</ele>
        <time>2020-08-17T07:19:25Z</time>
      </trkpt>
      <trkpt lat="46.70891" lon="5.63369">
        <ele>360</ele>
        <time>2020-08-17T07:19:41Z</time>
      </trkpt>
      <trkpt lat="46.70884" lon="5.63363">
        <ele>360</ele>
        <time>2020-08-17T07:19:49Z</time>
      </trkpt>
      <trkpt lat="46.70876" lon="5.63361">
        <ele>360</ele>
        <time>2020-08-17T07:19:55Z</time>
      </trkpt>
      <trkpt lat="46.70869" lon="5.6336">
        <ele>360</ele>
        <time>2020-08-17T07:20:01Z</time>
      </trkpt>
      <trkpt lat="46.70846" lon="5.63361">
        <ele>362</ele>
        <time>2020-08-17T07:20:24Z</time>
      </trkpt>
      <trkpt lat="46.7084" lon="5.63368">
        <ele>362</ele>
        <time>2020-08-17T07:20:31Z</time>
      </trkpt>
      <trkpt lat="46.70832" lon="5.63367">
        <ele>363</ele>
        <time>2020-08-17T07:20:37Z</time>
      </trkpt>
      <trkpt lat="46.70828" lon="5.6338">
        <ele>364</ele>
        <time>2020-08-17T07:20:57Z</time>
      </trkpt>
      <trkpt lat="46.70821" lon="5.63387">
        <ele>364</ele>
        <time>2020-08-17T07:21:21Z</time>
      </trkpt>
      <trkpt lat="46.70854" lon="5.63408">
        <ele>369</ele>
        <time>2020-08-17T07:21:56Z</time>
      </trkpt>
      <trkpt lat="46.70863" lon="5.63415">
        <ele>370</ele>
        <time>2020-08-17T07:22:05Z</time>
      </trkpt>
      <trkpt lat="46.70871" lon="5.63415">
        <ele>371</ele>
        <time>2020-08-17T07:22:10Z</time>
      </trkpt>
      <trkpt lat="46.70878" lon="5.6342">
        <ele>372</ele>
        <time>2020-08-17T07:22:20Z</time>
      </trkpt>
      <trkpt lat="46.7089" lon="5.63439">
        <ele>374</ele>
        <time>2020-08-17T07:22:41Z</time>
      </trkpt>
      <trkpt lat="46.70897" lon="5.63445">
        <ele>376</ele>
        <time>2020-08-17T07:22:51Z</time>
      </trkpt>
      <trkpt lat="46.70907" lon="5.63448">
        <ele>377</ele>
        <time>2020-08-17T07:23:05Z</time>
      </trkpt>
      <trkpt lat="46.70922" lon="5.63458">
        <ele>380</ele>
        <time>2020-08-17T07:23:23Z</time>
      </trkpt>
      <trkpt lat="46.70935" lon="5.63469">
        <ele>381</ele>
        <time>2020-08-17T07:23:38Z</time>
      </trkpt>
      <trkpt lat="46.70942" lon="5.63474">
        <ele>383</ele>
        <time>2020-08-17T07:23:50Z</time>
      </trkpt>
      <trkpt lat="46.70948" lon="5.63483">
        <ele>384</ele>
        <time>2020-08-17T07:24:02Z</time>
      </trkpt>
      <trkpt lat="46.7096" lon="5.63493">
        <ele>386</ele>
        <time>2020-08-17T07:24:16Z</time>
      </trkpt>
      <trkpt lat="46.70958" lon="5.63496">
        <ele>391</ele>
        <time>2020-08-17T07:25:00Z</time>
      </trkpt>
      <trkpt lat="46.7095" lon="5.63492">
        <ele>392</ele>
        <time>2020-08-17T07:25:12Z</time>
      </trkpt>
      <trkpt lat="46.70927" lon="5.63485">
        <ele>396</ele>
        <time>2020-08-17T07:25:47Z</time>
      </trkpt>
      <trkpt lat="46.70897" lon="5.63484">
        <ele>399</ele>
        <time>2020-08-17T07:26:20Z</time>
      </trkpt>
      <trkpt lat="46.70874" lon="5.63481">
        <ele>403</ele>
        <time>2020-08-17T07:26:52Z</time>
      </trkpt>
      <trkpt lat="46.70867" lon="5.63477">
        <ele>404</ele>
        <time>2020-08-17T07:27:04Z</time>
      </trkpt>
      <trkpt lat="46.70859" lon="5.63482">
        <ele>406</ele>
        <time>2020-08-17T07:27:22Z</time>
      </trkpt>
      <trkpt lat="46.70851" lon="5.63476">
        <ele>408</ele>
        <time>2020-08-17T07:27:35Z</time>
      </trkpt>
      <trkpt lat="46.70833" lon="5.63478">
        <ele>410</ele>
        <time>2020-08-17T07:27:52Z</time>
      </trkpt>
      <trkpt lat="46.70823" lon="5.63475">
        <ele>411</ele>
        <time>2020-08-17T07:28:06Z</time>
      </trkpt>
      <trkpt lat="46.70803" lon="5.63473">
        <ele>414</ele>
        <time>2020-08-17T07:28:32Z</time>
      </trkpt>
      <trkpt lat="46.70795" lon="5.63474">
        <ele>415</ele>
        <time>2020-08-17T07:28:44Z</time>
      </trkpt>
      <trkpt lat="46.70786" lon="5.63471">
        <ele>416</ele>
        <time>2020-08-17T07:28:57Z</time>
      </trkpt>
      <trkpt lat="46.70777" lon="5.63472">
        <ele>417</ele>
        <time>2020-08-17T07:29:09Z</time>
      </trkpt>
      <trkpt lat="46.70757" lon="5.63471">
        <ele>420</ele>
        <time>2020-08-17T07:29:40Z</time>
      </trkpt>
      <trkpt lat="46.70746" lon="5.63473">
        <ele>421</ele>
        <time>2020-08-17T07:29:51Z</time>
      </trkpt>
      <trkpt lat="46.70727" lon="5.63467">
        <ele>424</ele>
        <time>2020-08-17T07:30:18Z</time>
      </trkpt>
      <trkpt lat="46.70702" lon="5.63473">
        <ele>427</ele>
        <time>2020-08-17T07:30:49Z</time>
      </trkpt>
      <trkpt lat="46.70682" lon="5.63472">
        <ele>429</ele>
        <time>2020-08-17T07:31:15Z</time>
      </trkpt>
      <trkpt lat="46.70672" lon="5.6347">
        <ele>430</ele>
        <time>2020-08-17T07:31:28Z</time>
      </trkpt>
      <trkpt lat="46.70648" lon="5.63469">
        <ele>432</ele>
        <time>2020-08-17T07:32:00Z</time>
      </trkpt>
      <trkpt lat="46.70637" lon="5.63471">
        <ele>433</ele>
        <time>2020-08-17T07:32:12Z</time>
      </trkpt>
      <trkpt lat="46.70629" lon="5.63475">
        <ele>434</ele>
        <time>2020-08-17T07:32:22Z</time>
      </trkpt>
      <trkpt lat="46.70621" lon="5.63472">
        <ele>435</ele>
        <time>2020-08-17T07:32:35Z</time>
      </trkpt>
      <trkpt lat="46.70604" lon="5.63472">
        <ele>437</ele>
        <time>2020-08-17T07:32:55Z</time>
      </trkpt>
      <trkpt lat="46.7059" lon="5.63464">
        <ele>439</ele>
        <time>2020-08-17T07:33:12Z</time>
      </trkpt>
      <trkpt lat="46.70574" lon="5.63465">
        <ele>440</ele>
        <time>2020-08-17T07:33:32Z</time>
      </trkpt>
      <trkpt lat="46.70565" lon="5.63467">
        <ele>442</ele>
        <time>2020-08-17T07:33:48Z</time>
      </trkpt>
      <trkpt lat="46.70549" lon="5.63456">
        <ele>444</ele>
        <time>2020-08-17T07:34:08Z</time>
      </trkpt>
      <trkpt lat="46.70542" lon="5.63453">
        <ele>445</ele>
        <time>2020-08-17T07:34:18Z</time>
      </trkpt>
      <trkpt lat="46.70531" lon="5.63457">
        <ele>447</ele>
        <time>2020-08-17T07:34:36Z</time>
      </trkpt>
      <trkpt lat="46.70522" lon="5.63457">
        <ele>447</ele>
        <time>2020-08-17T07:34:44Z</time>
      </trkpt>
      <trkpt lat="46.70498" lon="5.63453">
        <ele>451</ele>
        <time>2020-08-17T07:35:22Z</time>
      </trkpt>
      <trkpt lat="46.70486" lon="5.63455">
        <ele>453</ele>
        <time>2020-08-17T07:35:37Z</time>
      </trkpt>
      <trkpt lat="46.70459" lon="5.63444">
        <ele>457</ele>
        <time>2020-08-17T07:36:13Z</time>
      </trkpt>
      <trkpt lat="46.70449" lon="5.63445">
        <ele>459</ele>
        <time>2020-08-17T07:36:25Z</time>
      </trkpt>
      <trkpt lat="46.70441" lon="5.63441">
        <ele>461</ele>
        <time>2020-08-17T07:36:41Z</time>
      </trkpt>
      <trkpt lat="46.70434" lon="5.63441">
        <ele>461</ele>
        <time>2020-08-17T07:36:47Z</time>
      </trkpt>
      <trkpt lat="46.70427" lon="5.63436">
        <ele>462</ele>
        <time>2020-08-17T07:37:00Z</time>
      </trkpt>
      <trkpt lat="46.70421" lon="5.63435">
        <ele>463</ele>
        <time>2020-08-17T07:37:06Z</time>
      </trkpt>
      <trkpt lat="46.70414" lon="5.63436">
        <ele>464</ele>
        <time>2020-08-17T07:37:14Z</time>
      </trkpt>
      <trkpt lat="46.70406" lon="5.63434">
        <ele>465</ele>
        <time>2020-08-17T07:37:25Z</time>
      </trkpt>
      <trkpt lat="46.70393" lon="5.63434">
        <ele>466</ele>
        <time>2020-08-17T07:37:37Z</time>
      </trkpt>
      <trkpt lat="46.70377" lon="5.63438">
        <ele>468</ele>
        <time>2020-08-17T07:38:03Z</time>
      </trkpt>
      <trkpt lat="46.70368" lon="5.63437">
        <ele>470</ele>
        <time>2020-08-17T07:38:15Z</time>
      </trkpt>
      <trkpt lat="46.70359" lon="5.63438">
        <ele>471</ele>
        <time>2020-08-17T07:38:28Z</time>
      </trkpt>
      <trkpt lat="46.70349" lon="5.63437">
        <ele>473</ele>
        <time>2020-08-17T07:38:40Z</time>
      </trkpt>
      <trkpt lat="46.70342" lon="5.63435">
        <ele>475</ele>
        <time>2020-08-17T07:38:54Z</time>
      </trkpt>
      <trkpt lat="46.70333" lon="5.63433">
        <ele>476</ele>
        <time>2020-08-17T07:39:07Z</time>
      </trkpt>
      <trkpt lat="46.70321" lon="5.6344">
        <ele>477</ele>
        <time>2020-08-17T07:39:21Z</time>
      </trkpt>
      <trkpt lat="46.70315" lon="5.6344">
        <ele>478</ele>
        <time>2020-08-17T07:39:29Z</time>
      </trkpt>
      <trkpt lat="46.7031" lon="5.63436">
        <ele>478</ele>
        <time>2020-08-17T07:39:34Z</time>
      </trkpt>
      <trkpt lat="46.70297" lon="5.63433">
        <ele>481</ele>
        <time>2020-08-17T07:39:54Z</time>
      </trkpt>
      <trkpt lat="46.70276" lon="5.63435">
        <ele>483</ele>
        <time>2020-08-17T07:40:20Z</time>
      </trkpt>
      <trkpt lat="46.70269" lon="5.63434">
        <ele>484</ele>
        <time>2020-08-17T07:40:32Z</time>
      </trkpt>
      <trkpt lat="46.70258" lon="5.63429">
        <ele>486</ele>
        <time>2020-08-17T07:40:45Z</time>
      </trkpt>
      <trkpt lat="46.70247" lon="5.63424">
        <ele>487</ele>
        <time>2020-08-17T07:41:00Z</time>
      </trkpt>
      <trkpt lat="46.70222" lon="5.6343">
        <ele>491</ele>
        <time>2020-08-17T07:41:38Z</time>
      </trkpt>
      <trkpt lat="46.70216" lon="5.63429">
        <ele>492</ele>
        <time>2020-08-17T07:41:44Z</time>
      </trkpt>
      <trkpt lat="46.70191" lon="5.63434">
        <ele>495</ele>
        <time>2020-08-17T07:42:16Z</time>
      </trkpt>
      <trkpt lat="46.70161" lon="5.63435">
        <ele>497</ele>
        <time>2020-08-17T07:42:49Z</time>
      </trkpt>
      <trkpt lat="46.70134" lon="5.63445">
        <ele>499</ele>
        <time>2020-08-17T07:43:22Z</time>
      </trkpt>
      <trkpt lat="46.70129" lon="5.63448">
        <ele>500</ele>
        <time>2020-08-17T07:43:27Z</time>
      </trkpt>
      <trkpt lat="46.70125" lon="5.63453">
        <ele>500</ele>
        <time>2020-08-17T07:43:36Z</time>
      </trkpt>
      <trkpt lat="46.70119" lon="5.63448">
        <ele>504</ele>
        <time>2020-08-17T07:49:55Z</time>
      </trkpt>
      <trkpt lat="46.70094" lon="5.63476">
        <ele>506</ele>
        <time>2020-08-17T07:51:16Z</time>
      </trkpt>
      <trkpt lat="46.70093" lon="5.63476">
        <ele>506</ele>
        <time>2020-08-17T07:51:17Z</time>
      </trkpt>
      <trkpt lat="46.70088" lon="5.63481">
        <ele>506</ele>
        <time>2020-08-17T07:51:23Z</time>
      </trkpt>
      <trkpt lat="46.70082" lon="5.63484">
        <ele>507</ele>
        <time>2020-08-17T07:51:28Z</time>
      </trkpt>
      <trkpt lat="46.70067" lon="5.63501">
        <ele>508</ele>
        <time>2020-08-17T07:51:49Z</time>
      </trkpt>
      <trkpt lat="46.70062" lon="5.63502">
        <ele>508</ele>
        <time>2020-08-17T07:51:54Z</time>
      </trkpt>
      <trkpt lat="46.70056" lon="5.63508">
        <ele>508</ele>
        <time>2020-08-17T07:52:00Z</time>
      </trkpt>
      <trkpt lat="46.70053" lon="5.63517">
        <ele>509</ele>
        <time>2020-08-17T07:52:06Z</time>
      </trkpt>
      <trkpt lat="46.70049" lon="5.63522">
        <ele>509</ele>
        <time>2020-08-17T07:52:12Z</time>
      </trkpt>
      <trkpt lat="46.70044" lon="5.63531">
        <ele>509</ele>
        <time>2020-08-17T07:52:20Z</time>
      </trkpt>
      <trkpt lat="46.70038" lon="5.63536">
        <ele>509</ele>
        <time>2020-08-17T07:52:25Z</time>
      </trkpt>
      <trkpt lat="46.70031" lon="5.63562">
        <ele>509</ele>
        <time>2020-08-17T07:52:45Z</time>
      </trkpt>
      <trkpt lat="46.70022" lon="5.63573">
        <ele>508</ele>
        <time>2020-08-17T07:52:54Z</time>
      </trkpt>
      <trkpt lat="46.70019" lon="5.63581">
        <ele>508</ele>
        <time>2020-08-17T07:52:59Z</time>
      </trkpt>
      <trkpt lat="46.70015" lon="5.63585">
        <ele>508</ele>
        <time>2020-08-17T07:53:04Z</time>
      </trkpt>
      <trkpt lat="46.7001" lon="5.63595">
        <ele>507</ele>
        <time>2020-08-17T07:53:14Z</time>
      </trkpt>
      <trkpt lat="46.70001" lon="5.63611">
        <ele>506</ele>
        <time>2020-08-17T07:53:28Z</time>
      </trkpt>
      <trkpt lat="46.70002" lon="5.6361">
        <ele>505</ele>
        <time>2020-08-17T07:54:11Z</time>
      </trkpt>
      <trkpt lat="46.70009" lon="5.63615">
        <ele>506</ele>
        <time>2020-08-17T07:54:37Z</time>
      </trkpt>
      <trkpt lat="46.7002" lon="5.63622">
        <ele>506</ele>
        <time>2020-08-17T07:54:47Z</time>
      </trkpt>
      <trkpt lat="46.70025" lon="5.63627">
        <ele>506</ele>
        <time>2020-08-17T07:54:52Z</time>
      </trkpt>
      <trkpt lat="46.70053" lon="5.63647">
        <ele>506</ele>
        <time>2020-08-17T07:55:19Z</time>
      </trkpt>
      <trkpt lat="46.70059" lon="5.63647">
        <ele>506</ele>
        <time>2020-08-17T07:55:24Z</time>
      </trkpt>
      <trkpt lat="46.70065" lon="5.6365">
        <ele>506</ele>
        <time>2020-08-17T07:55:29Z</time>
      </trkpt>
      <trkpt lat="46.70076" lon="5.63649">
        <ele>506</ele>
        <time>2020-08-17T07:55:39Z</time>
      </trkpt>
      <trkpt lat="46.70087" lon="5.63656">
        <ele>506</ele>
        <time>2020-08-17T07:55:49Z</time>
      </trkpt>
      <trkpt lat="46.70093" lon="5.63656">
        <ele>506</ele>
        <time>2020-08-17T07:55:54Z</time>
      </trkpt>
      <trkpt lat="46.70127" lon="5.63643">
        <ele>506</ele>
        <time>2020-08-17T07:56:25Z</time>
      </trkpt>
      <trkpt lat="46.7016" lon="5.63633">
        <ele>505</ele>
        <time>2020-08-17T07:56:54Z</time>
      </trkpt>
      <trkpt lat="46.70169" lon="5.6362">
        <ele>505</ele>
        <time>2020-08-17T07:57:03Z</time>
      </trkpt>
      <trkpt lat="46.70175" lon="5.63607">
        <ele>506</ele>
        <time>2020-08-17T07:57:13Z</time>
      </trkpt>
      <trkpt lat="46.70183" lon="5.63583">
        <ele>506</ele>
        <time>2020-08-17T07:57:30Z</time>
      </trkpt>
      <trkpt lat="46.70184" lon="5.63573">
        <ele>507</ele>
        <time>2020-08-17T07:57:36Z</time>
      </trkpt>
      <trkpt lat="46.70189" lon="5.63568">
        <ele>507</ele>
        <time>2020-08-17T07:57:42Z</time>
      </trkpt>
      <trkpt lat="46.70195" lon="5.6356">
        <ele>507</ele>
        <time>2020-08-17T07:57:50Z</time>
      </trkpt>
      <trkpt lat="46.70225" lon="5.63538">
        <ele>508</ele>
        <time>2020-08-17T07:58:19Z</time>
      </trkpt>
      <trkpt lat="46.70231" lon="5.63535">
        <ele>508</ele>
        <time>2020-08-17T07:58:24Z</time>
      </trkpt>
      <trkpt lat="46.70273" lon="5.63535">
        <ele>507</ele>
        <time>2020-08-17T07:59:00Z</time>
      </trkpt>
      <trkpt lat="46.70285" lon="5.63535">
        <ele>507</ele>
        <time>2020-08-17T07:59:10Z</time>
      </trkpt>
      <trkpt lat="46.703" lon="5.63541">
        <ele>507</ele>
        <time>2020-08-17T07:59:26Z</time>
      </trkpt>
      <trkpt lat="46.70306" lon="5.63543">
        <ele>507</ele>
        <time>2020-08-17T07:59:31Z</time>
      </trkpt>
      <trkpt lat="46.70312" lon="5.6354">
        <ele>506</ele>
        <time>2020-08-17T07:59:37Z</time>
      </trkpt>
      <trkpt lat="46.70322" lon="5.6354">
        <ele>506</ele>
        <time>2020-08-17T07:59:46Z</time>
      </trkpt>
      <trkpt lat="46.70334" lon="5.63545">
        <ele>506</ele>
        <time>2020-08-17T07:59:56Z</time>
      </trkpt>
      <trkpt lat="46.70346" lon="5.63547">
        <ele>506</ele>
        <time>2020-08-17T08:00:06Z</time>
      </trkpt>
      <trkpt lat="46.70352" lon="5.63546">
        <ele>506</ele>
        <time>2020-08-17T08:00:11Z</time>
      </trkpt>
      <trkpt lat="46.70388" lon="5.63555">
        <ele>506</ele>
        <time>2020-08-17T08:00:42Z</time>
      </trkpt>
      <trkpt lat="46.70394" lon="5.6356">
        <ele>506</ele>
        <time>2020-08-17T08:00:49Z</time>
      </trkpt>
      <trkpt lat="46.70399" lon="5.63566">
        <ele>506</ele>
        <time>2020-08-17T08:00:54Z</time>
      </trkpt>
      <trkpt lat="46.70427" lon="5.63584">
        <ele>507</ele>
        <time>2020-08-17T08:01:18Z</time>
      </trkpt>
      <trkpt lat="46.70432" lon="5.63585">
        <ele>506</ele>
        <time>2020-08-17T08:01:23Z</time>
      </trkpt>
      <trkpt lat="46.70435" lon="5.63592">
        <ele>506</ele>
        <time>2020-08-17T08:01:30Z</time>
      </trkpt>
      <trkpt lat="46.70442" lon="5.63594">
        <ele>506</ele>
        <time>2020-08-17T08:01:41Z</time>
      </trkpt>
      <trkpt lat="46.70461" lon="5.63598">
        <ele>505</ele>
        <time>2020-08-17T08:01:58Z</time>
      </trkpt>
      <trkpt lat="46.7048" lon="5.63616">
        <ele>505</ele>
        <time>2020-08-17T08:02:17Z</time>
      </trkpt>
      <trkpt lat="46.70512" lon="5.63625">
        <ele>505</ele>
        <time>2020-08-17T08:02:45Z</time>
      </trkpt>
      <trkpt lat="46.70518" lon="5.6363">
        <ele>505</ele>
        <time>2020-08-17T08:02:50Z</time>
      </trkpt>
      <trkpt lat="46.70529" lon="5.63632">
        <ele>504</ele>
        <time>2020-08-17T08:02:59Z</time>
      </trkpt>
      <trkpt lat="46.70536" lon="5.63632">
        <ele>504</ele>
        <time>2020-08-17T08:03:04Z</time>
      </trkpt>
      <trkpt lat="46.70554" lon="5.63637">
        <ele>504</ele>
        <time>2020-08-17T08:03:21Z</time>
      </trkpt>
      <trkpt lat="46.70559" lon="5.63641">
        <ele>504</ele>
        <time>2020-08-17T08:03:26Z</time>
      </trkpt>
      <trkpt lat="46.70565" lon="5.63642">
        <ele>503</ele>
        <time>2020-08-17T08:03:30Z</time>
      </trkpt>
      <trkpt lat="46.70593" lon="5.63653">
        <ele>503</ele>
        <time>2020-08-17T08:03:54Z</time>
      </trkpt>
      <trkpt lat="46.70599" lon="5.63653">
        <ele>503</ele>
        <time>2020-08-17T08:03:59Z</time>
      </trkpt>
      <trkpt lat="46.70616" lon="5.63663">
        <ele>502</ele>
        <time>2020-08-17T08:04:14Z</time>
      </trkpt>
      <trkpt lat="46.70636" lon="5.63682">
        <ele>502</ele>
        <time>2020-08-17T08:04:31Z</time>
      </trkpt>
      <trkpt lat="46.70661" lon="5.63696">
        <ele>502</ele>
        <time>2020-08-17T08:04:55Z</time>
      </trkpt>
      <trkpt lat="46.70668" lon="5.63692">
        <ele>501</ele>
        <time>2020-08-17T08:05:00Z</time>
      </trkpt>
      <trkpt lat="46.70673" lon="5.63692">
        <ele>501</ele>
        <time>2020-08-17T08:05:04Z</time>
      </trkpt>
      <trkpt lat="46.70715" lon="5.63708">
        <ele>501</ele>
        <time>2020-08-17T08:05:38Z</time>
      </trkpt>
      <trkpt lat="46.70721" lon="5.63709">
        <ele>501</ele>
        <time>2020-08-17T08:05:43Z</time>
      </trkpt>
      <trkpt lat="46.70727" lon="5.63713">
        <ele>501</ele>
        <time>2020-08-17T08:05:54Z</time>
      </trkpt>
      <trkpt lat="46.70748" lon="5.6371">
        <ele>501</ele>
        <time>2020-08-17T08:06:18Z</time>
      </trkpt>
      <trkpt lat="46.70756" lon="5.63711">
        <ele>501</ele>
        <time>2020-08-17T08:06:29Z</time>
      </trkpt>
      <trkpt lat="46.70774" lon="5.63713">
        <ele>500</ele>
        <time>2020-08-17T08:06:44Z</time>
      </trkpt>
      <trkpt lat="46.7079" lon="5.63724">
        <ele>500</ele>
        <time>2020-08-17T08:06:57Z</time>
      </trkpt>
      <trkpt lat="46.70801" lon="5.63726">
        <ele>500</ele>
        <time>2020-08-17T08:07:06Z</time>
      </trkpt>
      <trkpt lat="46.70806" lon="5.63726">
        <ele>500</ele>
        <time>2020-08-17T08:07:11Z</time>
      </trkpt>
      <trkpt lat="46.7083" lon="5.63736">
        <ele>500</ele>
        <time>2020-08-17T08:07:33Z</time>
      </trkpt>
      <trkpt lat="46.70835" lon="5.63742">
        <ele>500</ele>
        <time>2020-08-17T08:07:41Z</time>
      </trkpt>
      <trkpt lat="46.70844" lon="5.63758">
        <ele>501</ele>
        <time>2020-08-17T08:07:52Z</time>
      </trkpt>
      <trkpt lat="46.70863" lon="5.63794">
        <ele>501</ele>
        <time>2020-08-17T08:08:23Z</time>
      </trkpt>
      <trkpt lat="46.70876" lon="5.63812">
        <ele>501</ele>
        <time>2020-08-17T08:08:36Z</time>
      </trkpt>
      <trkpt lat="46.70887" lon="5.63818">
        <ele>501</ele>
        <time>2020-08-17T08:08:46Z</time>
      </trkpt>
      <trkpt lat="46.70892" lon="5.63823">
        <ele>501</ele>
        <time>2020-08-17T08:08:51Z</time>
      </trkpt>
      <trkpt lat="46.70899" lon="5.63823">
        <ele>502</ele>
        <time>2020-08-17T08:08:59Z</time>
      </trkpt>
      <trkpt lat="46.70907" lon="5.63819">
        <ele>502</ele>
        <time>2020-08-17T08:09:10Z</time>
      </trkpt>
      <trkpt lat="46.70913" lon="5.63808">
        <ele>502</ele>
        <time>2020-08-17T08:09:28Z</time>
      </trkpt>
      <trkpt lat="46.7092" lon="5.63801">
        <ele>501</ele>
        <time>2020-08-17T08:10:22Z</time>
      </trkpt>
      <trkpt lat="46.70921" lon="5.63811">
        <ele>502</ele>
        <time>2020-08-17T08:10:54Z</time>
      </trkpt>
      <trkpt lat="46.70919" lon="5.63819">
        <ele>501</ele>
        <time>2020-08-17T08:11:30Z</time>
      </trkpt>
      <trkpt lat="46.70903" lon="5.63823">
        <ele>500</ele>
        <time>2020-08-17T08:11:49Z</time>
      </trkpt>
      <trkpt lat="46.70905" lon="5.63845">
        <ele>499</ele>
        <time>2020-08-17T08:12:05Z</time>
      </trkpt>
      <trkpt lat="46.70905" lon="5.63853">
        <ele>499</ele>
        <time>2020-08-17T08:12:10Z</time>
      </trkpt>
      <trkpt lat="46.70902" lon="5.63863">
        <ele>499</ele>
        <time>2020-08-17T08:12:15Z</time>
      </trkpt>
      <trkpt lat="46.70902" lon="5.6387">
        <ele>499</ele>
        <time>2020-08-17T08:12:32Z</time>
      </trkpt>
      <trkpt lat="46.70902" lon="5.63888">
        <ele>499</ele>
        <time>2020-08-17T08:12:46Z</time>
      </trkpt>
      <trkpt lat="46.70901" lon="5.63896">
        <ele>499</ele>
        <time>2020-08-17T08:12:51Z</time>
      </trkpt>
      <trkpt lat="46.70902" lon="5.63904">
        <ele>499</ele>
        <time>2020-08-17T08:12:57Z</time>
      </trkpt>
      <trkpt lat="46.70902" lon="5.63921">
        <ele>500</ele>
        <time>2020-08-17T08:13:15Z</time>
      </trkpt>
      <trkpt lat="46.70904" lon="5.63979">
        <ele>502</ele>
        <time>2020-08-17T08:13:46Z</time>
      </trkpt>
      <trkpt lat="46.70905" lon="5.6399">
        <ele>502</ele>
        <time>2020-08-17T08:13:54Z</time>
      </trkpt>
      <trkpt lat="46.70909" lon="5.64006">
        <ele>502</ele>
        <time>2020-08-17T08:14:03Z</time>
      </trkpt>
      <trkpt lat="46.70909" lon="5.64017">
        <ele>502</ele>
        <time>2020-08-17T08:14:10Z</time>
      </trkpt>
      <trkpt lat="46.70908" lon="5.64026">
        <ele>502</ele>
        <time>2020-08-17T08:14:14Z</time>
      </trkpt>
      <trkpt lat="46.70908" lon="5.64037">
        <ele>502</ele>
        <time>2020-08-17T08:14:21Z</time>
      </trkpt>
      <trkpt lat="46.70915" lon="5.64061">
        <ele>501</ele>
        <time>2020-08-17T08:14:36Z</time>
      </trkpt>
      <trkpt lat="46.70912" lon="5.64071">
        <ele>501</ele>
        <time>2020-08-17T08:14:44Z</time>
      </trkpt>
      <trkpt lat="46.70911" lon="5.64111">
        <ele>500</ele>
        <time>2020-08-17T08:15:10Z</time>
      </trkpt>
      <trkpt lat="46.70909" lon="5.64119">
        <ele>500</ele>
        <time>2020-08-17T08:15:14Z</time>
      </trkpt>
      <trkpt lat="46.70898" lon="5.64138">
        <ele>498</ele>
        <time>2020-08-17T08:15:28Z</time>
      </trkpt>
      <trkpt lat="46.70892" lon="5.64144">
        <ele>497</ele>
        <time>2020-08-17T08:15:35Z</time>
      </trkpt>
      <trkpt lat="46.70888" lon="5.64153">
        <ele>497</ele>
        <time>2020-08-17T08:15:41Z</time>
      </trkpt>
      <trkpt lat="46.70888" lon="5.64178">
        <ele>496</ele>
        <time>2020-08-17T08:15:54Z</time>
      </trkpt>
      <trkpt lat="46.70893" lon="5.64188">
        <ele>495</ele>
        <time>2020-08-17T08:16:03Z</time>
      </trkpt>
      <trkpt lat="46.70897" lon="5.64193">
        <ele>494</ele>
        <time>2020-08-17T08:16:09Z</time>
      </trkpt>
      <trkpt lat="46.70902" lon="5.64211">
        <ele>494</ele>
        <time>2020-08-17T08:16:22Z</time>
      </trkpt>
      <trkpt lat="46.70908" lon="5.64216">
        <ele>494</ele>
        <time>2020-08-17T08:16:26Z</time>
      </trkpt>
      <trkpt lat="46.70913" lon="5.64218">
        <ele>494</ele>
        <time>2020-08-17T08:16:31Z</time>
      </trkpt>
      <trkpt lat="46.70937" lon="5.64222">
        <ele>494</ele>
        <time>2020-08-17T08:16:53Z</time>
      </trkpt>
      <trkpt lat="46.70944" lon="5.64226">
        <ele>494</ele>
        <time>2020-08-17T08:17:01Z</time>
      </trkpt>
      <trkpt lat="46.70958" lon="5.64237">
        <ele>494</ele>
        <time>2020-08-17T08:17:22Z</time>
      </trkpt>
      <trkpt lat="46.70959" lon="5.64242">
        <ele>494</ele>
        <time>2020-08-17T08:19:41Z</time>
      </trkpt>
      <trkpt lat="46.70952" lon="5.64245">
        <ele>493</ele>
        <time>2020-08-17T08:20:11Z</time>
      </trkpt>
      <trkpt lat="46.70949" lon="5.64253">
        <ele>492</ele>
        <time>2020-08-17T08:20:18Z</time>
      </trkpt>
      <trkpt lat="46.70947" lon="5.6426">
        <ele>492</ele>
        <time>2020-08-17T08:20:22Z</time>
      </trkpt>
      <trkpt lat="46.70945" lon="5.64268">
        <ele>491</ele>
        <time>2020-08-17T08:20:30Z</time>
      </trkpt>
      <trkpt lat="46.7094" lon="5.64274">
        <ele>490</ele>
        <time>2020-08-17T08:20:34Z</time>
      </trkpt>
      <trkpt lat="46.70934" lon="5.64279">
        <ele>490</ele>
        <time>2020-08-17T08:20:38Z</time>
      </trkpt>
      <trkpt lat="46.70917" lon="5.643">
        <ele>489</ele>
        <time>2020-08-17T08:20:59Z</time>
      </trkpt>
      <trkpt lat="46.70905" lon="5.64309">
        <ele>489</ele>
        <time>2020-08-17T08:21:13Z</time>
      </trkpt>
      <trkpt lat="46.70897" lon="5.64319">
        <ele>488</ele>
        <time>2020-08-17T08:21:23Z</time>
      </trkpt>
      <trkpt lat="46.70893" lon="5.64323">
        <ele>487</ele>
        <time>2020-08-17T08:21:31Z</time>
      </trkpt>
      <trkpt lat="46.70893" lon="5.64329">
        <ele>486</ele>
        <time>2020-08-17T08:21:37Z</time>
      </trkpt>
      <trkpt lat="46.7089" lon="5.64334">
        <ele>485</ele>
        <time>2020-08-17T08:21:42Z</time>
      </trkpt>
      <trkpt lat="46.70885" lon="5.64336">
        <ele>484</ele>
        <time>2020-08-17T08:21:46Z</time>
      </trkpt>
      <trkpt lat="46.70879" lon="5.64335">
        <ele>483</ele>
        <time>2020-08-17T08:21:52Z</time>
      </trkpt>
      <trkpt lat="46.70875" lon="5.64338">
        <ele>483</ele>
        <time>2020-08-17T08:22:01Z</time>
      </trkpt>
      <trkpt lat="46.70868" lon="5.64335">
        <ele>483</ele>
        <time>2020-08-17T08:22:13Z</time>
      </trkpt>
      <trkpt lat="46.70843" lon="5.64327">
        <ele>483</ele>
        <time>2020-08-17T08:22:39Z</time>
      </trkpt>
      <trkpt lat="46.70827" lon="5.64321">
        <ele>482</ele>
        <time>2020-08-17T08:22:55Z</time>
      </trkpt>
      <trkpt lat="46.70805" lon="5.64316">
        <ele>482</ele>
        <time>2020-08-17T08:23:15Z</time>
      </trkpt>
      <trkpt lat="46.70789" lon="5.64308">
        <ele>482</ele>
        <time>2020-08-17T08:23:30Z</time>
      </trkpt>
      <trkpt lat="46.70783" lon="5.64311">
        <ele>481</ele>
        <time>2020-08-17T08:23:35Z</time>
      </trkpt>
      <trkpt lat="46.70779" lon="5.64316">
        <ele>481</ele>
        <time>2020-08-17T08:23:39Z</time>
      </trkpt>
      <trkpt lat="46.7078" lon="5.6431">
        <ele>481</ele>
        <time>2020-08-17T08:27:09Z</time>
      </trkpt>
      <trkpt lat="46.70763" lon="5.643">
        <ele>480</ele>
        <time>2020-08-17T08:27:25Z</time>
      </trkpt>
      <trkpt lat="46.70757" lon="5.64301">
        <ele>480</ele>
        <time>2020-08-17T08:27:31Z</time>
      </trkpt>
      <trkpt lat="46.70751" lon="5.64301">
        <ele>480</ele>
        <time>2020-08-17T08:27:37Z</time>
      </trkpt>
      <trkpt lat="46.70746" lon="5.64297">
        <ele>479</ele>
        <time>2020-08-17T08:27:46Z</time>
      </trkpt>
      <trkpt lat="46.7074" lon="5.64297">
        <ele>479</ele>
        <time>2020-08-17T08:27:50Z</time>
      </trkpt>
      <trkpt lat="46.70734" lon="5.64291">
        <ele>479</ele>
        <time>2020-08-17T08:27:58Z</time>
      </trkpt>
      <trkpt lat="46.70723" lon="5.64286">
        <ele>479</ele>
        <time>2020-08-17T08:28:12Z</time>
      </trkpt>
      <trkpt lat="46.7072" lon="5.64287">
        <ele>479</ele>
        <time>2020-08-17T08:28:24Z</time>
      </trkpt>
      <trkpt lat="46.70712" lon="5.64281">
        <ele>480</ele>
        <time>2020-08-17T08:28:49Z</time>
      </trkpt>
      <trkpt lat="46.707" lon="5.64281">
        <ele>480</ele>
        <time>2020-08-17T08:29:00Z</time>
      </trkpt>
      <trkpt lat="46.70694" lon="5.64283">
        <ele>480</ele>
        <time>2020-08-17T08:29:05Z</time>
      </trkpt>
      <trkpt lat="46.70689" lon="5.64287">
        <ele>480</ele>
        <time>2020-08-17T08:29:10Z</time>
      </trkpt>
      <trkpt lat="46.70684" lon="5.64288">
        <ele>480</ele>
        <time>2020-08-17T08:29:14Z</time>
      </trkpt>
      <trkpt lat="46.70677" lon="5.64291">
        <ele>480</ele>
        <time>2020-08-17T08:29:22Z</time>
      </trkpt>
      <trkpt lat="46.70681" lon="5.64296">
        <ele>478</ele>
        <time>2020-08-17T08:30:00Z</time>
      </trkpt>
      <trkpt lat="46.7068" lon="5.64302">
        <ele>469</ele>
        <time>2020-08-17T08:31:25Z</time>
      </trkpt>
      <trkpt lat="46.70662" lon="5.64312">
        <ele>466</ele>
        <time>2020-08-17T08:31:52Z</time>
      </trkpt>
      <trkpt lat="46.70656" lon="5.64324">
        <ele>463</ele>
        <time>2020-08-17T08:32:12Z</time>
      </trkpt>
      <trkpt lat="46.7065" lon="5.64333">
        <ele>462</ele>
        <time>2020-08-17T08:32:20Z</time>
      </trkpt>
      <trkpt lat="46.70655" lon="5.64341">
        <ele>458</ele>
        <time>2020-08-17T08:32:45Z</time>
      </trkpt>
      <trkpt lat="46.70664" lon="5.64337">
        <ele>456</ele>
        <time>2020-08-17T08:33:09Z</time>
      </trkpt>
      <trkpt lat="46.70672" lon="5.64339">
        <ele>453</ele>
        <time>2020-08-17T08:33:33Z</time>
      </trkpt>
      <trkpt lat="46.70686" lon="5.64342">
        <ele>450</ele>
        <time>2020-08-17T08:34:03Z</time>
      </trkpt>
      <trkpt lat="46.70693" lon="5.64342">
        <ele>448</ele>
        <time>2020-08-17T08:34:15Z</time>
      </trkpt>
      <trkpt lat="46.70701" lon="5.64343">
        <ele>444</ele>
        <time>2020-08-17T08:34:57Z</time>
      </trkpt>
      <trkpt lat="46.70707" lon="5.64349">
        <ele>441</ele>
        <time>2020-08-17T08:35:21Z</time>
      </trkpt>
      <trkpt lat="46.70711" lon="5.64356">
        <ele>440</ele>
        <time>2020-08-17T08:35:39Z</time>
      </trkpt>
      <trkpt lat="46.70719" lon="5.64358">
        <ele>437</ele>
        <time>2020-08-17T08:36:13Z</time>
      </trkpt>
      <trkpt lat="46.70727" lon="5.64356">
        <ele>434</ele>
        <time>2020-08-17T08:36:39Z</time>
      </trkpt>
      <trkpt lat="46.70733" lon="5.6436">
        <ele>428</ele>
        <time>2020-08-17T08:37:33Z</time>
      </trkpt>
      <trkpt lat="46.70739" lon="5.64374">
        <ele>423</ele>
        <time>2020-08-17T08:38:04Z</time>
      </trkpt>
      <trkpt lat="46.70737" lon="5.64372">
        <ele>414</ele>
        <time>2020-08-17T08:40:28Z</time>
      </trkpt>
      <trkpt lat="46.70729" lon="5.64374">
        <ele>410</ele>
        <time>2020-08-17T08:40:58Z</time>
      </trkpt>
      <trkpt lat="46.70721" lon="5.64387">
        <ele>406</ele>
        <time>2020-08-17T08:41:34Z</time>
      </trkpt>
      <trkpt lat="46.70704" lon="5.64384">
        <ele>397</ele>
        <time>2020-08-17T08:42:30Z</time>
      </trkpt>
      <trkpt lat="46.70689" lon="5.64379">
        <ele>393</ele>
        <time>2020-08-17T08:43:07Z</time>
      </trkpt>
      <trkpt lat="46.70667" lon="5.64373">
        <ele>386</ele>
        <time>2020-08-17T08:44:18Z</time>
      </trkpt>
      <trkpt lat="46.70659" lon="5.64405">
        <ele>380</ele>
        <time>2020-08-17T08:45:36Z</time>
      </trkpt>
      <trkpt lat="46.70655" lon="5.64419">
        <ele>377</ele>
        <time>2020-08-17T08:45:54Z</time>
      </trkpt>
      <trkpt lat="46.70647" lon="5.64418">
        <ele>376</ele>
        <time>2020-08-17T08:46:12Z</time>
      </trkpt>
      <trkpt lat="46.70642" lon="5.64427">
        <ele>375</ele>
        <time>2020-08-17T08:46:30Z</time>
      </trkpt>
      <trkpt lat="46.70625" lon="5.64437">
        <ele>369</ele>
        <time>2020-08-17T08:47:14Z</time>
      </trkpt>
      <trkpt lat="46.70616" lon="5.64446">
        <ele>368</ele>
        <time>2020-08-17T08:47:32Z</time>
      </trkpt>
      <trkpt lat="46.70618" lon="5.64459">
        <ele>362</ele>
        <time>2020-08-17T08:48:16Z</time>
      </trkpt>
      <trkpt lat="46.70618" lon="5.64469">
        <ele>360</ele>
        <time>2020-08-17T08:48:27Z</time>
      </trkpt>
      <trkpt lat="46.70626" lon="5.64488">
        <ele>355</ele>
        <time>2020-08-17T08:49:13Z</time>
      </trkpt>
      <trkpt lat="46.70631" lon="5.64498">
        <ele>352</ele>
        <time>2020-08-17T08:49:39Z</time>
      </trkpt>
      <trkpt lat="46.70628" lon="5.64508">
        <ele>350</ele>
        <time>2020-08-17T08:49:51Z</time>
      </trkpt>
      <trkpt lat="46.70633" lon="5.64516">
        <ele>349</ele>
        <time>2020-08-17T08:50:03Z</time>
      </trkpt>
      <trkpt lat="46.70637" lon="5.64521">
        <ele>344</ele>
        <time>2020-08-17T08:50:40Z</time>
      </trkpt>
      <trkpt lat="46.70648" lon="5.64538">
        <ele>342</ele>
        <time>2020-08-17T08:50:59Z</time>
      </trkpt>
      <trkpt lat="46.70651" lon="5.64552">
        <ele>340</ele>
        <time>2020-08-17T08:51:12Z</time>
      </trkpt>
      <trkpt lat="46.70651" lon="5.6456">
        <ele>339</ele>
        <time>2020-08-17T08:51:20Z</time>
      </trkpt>
      <trkpt lat="46.70658" lon="5.64563">
        <ele>337</ele>
        <time>2020-08-17T08:51:39Z</time>
      </trkpt>
      <trkpt lat="46.70664" lon="5.64572">
        <ele>335</ele>
        <time>2020-08-17T08:52:02Z</time>
      </trkpt>
      <trkpt lat="46.70662" lon="5.6458">
        <ele>331</ele>
        <time>2020-08-17T08:52:26Z</time>
      </trkpt>
      <trkpt lat="46.70654" lon="5.6458">
        <ele>329</ele>
        <time>2020-08-17T08:52:38Z</time>
      </trkpt>
      <trkpt lat="46.70646" lon="5.64583">
        <ele>329</ele>
        <time>2020-08-17T08:52:48Z</time>
      </trkpt>
      <trkpt lat="46.70639" lon="5.64588">
        <ele>328</ele>
        <time>2020-08-17T08:52:56Z</time>
      </trkpt>
      <trkpt lat="46.70631" lon="5.64589">
        <ele>326</ele>
        <time>2020-08-17T08:53:06Z</time>
      </trkpt>
      <trkpt lat="46.70615" lon="5.64606">
        <ele>322</ele>
        <time>2020-08-17T08:53:39Z</time>
      </trkpt>
      <trkpt lat="46.70606" lon="5.64613">
        <ele>321</ele>
        <time>2020-08-17T08:53:51Z</time>
      </trkpt>
      <trkpt lat="46.70601" lon="5.64621">
        <ele>319</ele>
        <time>2020-08-17T08:54:05Z</time>
      </trkpt>
      <trkpt lat="46.70595" lon="5.64622">
        <ele>318</ele>
        <time>2020-08-17T08:54:17Z</time>
      </trkpt>
      <trkpt lat="46.70593" lon="5.64629">
        <ele>316</ele>
        <time>2020-08-17T08:54:35Z</time>
      </trkpt>
      <trkpt lat="46.70593" lon="5.64649">
        <ele>312</ele>
        <time>2020-08-17T08:55:05Z</time>
      </trkpt>
      <trkpt lat="46.7059" lon="5.64656">
        <ele>310</ele>
        <time>2020-08-17T08:55:17Z</time>
      </trkpt>
      <trkpt lat="46.70581" lon="5.64657">
        <ele>309</ele>
        <time>2020-08-17T08:55:41Z</time>
      </trkpt>
      <trkpt lat="46.70575" lon="5.64658">
        <ele>309</ele>
        <time>2020-08-17T08:55:46Z</time>
      </trkpt>
      <trkpt lat="46.70575" lon="5.64667">
        <ele>309</ele>
        <time>2020-08-17T08:57:01Z</time>
      </trkpt>
      <trkpt lat="46.70576" lon="5.6467">
        <ele>308</ele>
        <time>2020-08-17T08:58:28Z</time>
      </trkpt>
      <trkpt lat="46.7058" lon="5.64664">
        <ele>307</ele>
        <time>2020-08-17T09:00:16Z</time>
      </trkpt>
      <trkpt lat="46.70572" lon="5.64662">
        <ele>307</ele>
        <time>2020-08-17T09:00:28Z</time>
      </trkpt>
      <trkpt lat="46.70573" lon="5.6467">
        <ele>307</ele>
        <time>2020-08-17T09:01:40Z</time>
      </trkpt>
      <trkpt lat="46.70567" lon="5.64673">
        <ele>307</ele>
        <time>2020-08-17T09:03:37Z</time>
      </trkpt>
      <trkpt lat="46.70535" lon="5.64679">
        <ele>308</ele>
        <time>2020-08-17T09:04:07Z</time>
      </trkpt>
      <trkpt lat="46.70523" lon="5.64677">
        <ele>309</ele>
        <time>2020-08-17T09:04:19Z</time>
      </trkpt>
      <trkpt lat="46.70506" lon="5.64667">
        <ele>311</ele>
        <time>2020-08-17T09:04:37Z</time>
      </trkpt>
      <trkpt lat="46.70491" lon="5.64659">
        <ele>312</ele>
        <time>2020-08-17T09:04:51Z</time>
      </trkpt>
      <trkpt lat="46.70485" lon="5.64658">
        <ele>312</ele>
        <time>2020-08-17T09:04:56Z</time>
      </trkpt>
      <trkpt lat="46.70467" lon="5.64647">
        <ele>313</ele>
        <time>2020-08-17T09:05:17Z</time>
      </trkpt>
      <trkpt lat="46.7045" lon="5.64639">
        <ele>313</ele>
        <time>2020-08-17T09:05:37Z</time>
      </trkpt>
      <trkpt lat="46.70433" lon="5.64627">
        <ele>313</ele>
        <time>2020-08-17T09:05:52Z</time>
      </trkpt>
      <trkpt lat="46.7042" lon="5.64625">
        <ele>312</ele>
        <time>2020-08-17T09:06:00Z</time>
      </trkpt>
      <trkpt lat="46.70411" lon="5.64613">
        <ele>312</ele>
        <time>2020-08-17T09:06:11Z</time>
      </trkpt>
      <trkpt lat="46.70408" lon="5.646">
        <ele>313</ele>
        <time>2020-08-17T09:06:22Z</time>
      </trkpt>
      <trkpt lat="46.70406" lon="5.64591">
        <ele>312</ele>
        <time>2020-08-17T09:06:34Z</time>
      </trkpt>
      <trkpt lat="46.70414" lon="5.64589">
        <ele>312</ele>
        <time>2020-08-17T09:06:46Z</time>
      </trkpt>
      <trkpt lat="46.70424" lon="5.64578">
        <ele>313</ele>
        <time>2020-08-17T09:06:58Z</time>
      </trkpt>
      <trkpt lat="46.70428" lon="5.64574">
        <ele>313</ele>
        <time>2020-08-17T09:07:07Z</time>
      </trkpt>
      <trkpt lat="46.70435" lon="5.64556">
        <ele>317</ele>
        <time>2020-08-17T09:07:28Z</time>
      </trkpt>
      <trkpt lat="46.70437" lon="5.64538">
        <ele>320</ele>
        <time>2020-08-17T09:07:43Z</time>
      </trkpt>
      <trkpt lat="46.70426" lon="5.64512">
        <ele>326</ele>
        <time>2020-08-17T09:08:09Z</time>
      </trkpt>
      <trkpt lat="46.7042" lon="5.64501">
        <ele>328</ele>
        <time>2020-08-17T09:08:23Z</time>
      </trkpt>
      <trkpt lat="46.70416" lon="5.64492">
        <ele>329</ele>
        <time>2020-08-17T09:08:32Z</time>
      </trkpt>
      <trkpt lat="46.70407" lon="5.64486">
        <ele>331</ele>
        <time>2020-08-17T09:08:46Z</time>
      </trkpt>
      <trkpt lat="46.70393" lon="5.64471">
        <ele>333</ele>
        <time>2020-08-17T09:09:12Z</time>
      </trkpt>
      <trkpt lat="46.70384" lon="5.64465">
        <ele>334</ele>
        <time>2020-08-17T09:09:27Z</time>
      </trkpt>
      <trkpt lat="46.70377" lon="5.64462">
        <ele>335</ele>
        <time>2020-08-17T09:09:37Z</time>
      </trkpt>
      <trkpt lat="46.70371" lon="5.64454">
        <ele>335</ele>
        <time>2020-08-17T09:09:43Z</time>
      </trkpt>
      <trkpt lat="46.70366" lon="5.64446">
        <ele>336</ele>
        <time>2020-08-17T09:09:51Z</time>
      </trkpt>
      <trkpt lat="46.70359" lon="5.64443">
        <ele>336</ele>
        <time>2020-08-17T09:09:56Z</time>
      </trkpt>
      <trkpt lat="46.70355" lon="5.64437">
        <ele>336</ele>
        <time>2020-08-17T09:10:02Z</time>
      </trkpt>
      <trkpt lat="46.70352" lon="5.64416">
        <ele>338</ele>
        <time>2020-08-17T09:10:19Z</time>
      </trkpt>
      <trkpt lat="46.70348" lon="5.64403">
        <ele>338</ele>
        <time>2020-08-17T09:10:33Z</time>
      </trkpt>
      <trkpt lat="46.7034" lon="5.64392">
        <ele>339</ele>
        <time>2020-08-17T09:10:46Z</time>
      </trkpt>
      <trkpt lat="46.70322" lon="5.64381">
        <ele>338</ele>
        <time>2020-08-17T09:11:07Z</time>
      </trkpt>
      <trkpt lat="46.70315" lon="5.64376">
        <ele>337</ele>
        <time>2020-08-17T09:11:18Z</time>
      </trkpt>
      <trkpt lat="46.70306" lon="5.64375">
        <ele>337</ele>
        <time>2020-08-17T09:11:22Z</time>
      </trkpt>
      <trkpt lat="46.70299" lon="5.64374">
        <ele>337</ele>
        <time>2020-08-17T09:11:27Z</time>
      </trkpt>
      <trkpt lat="46.70294" lon="5.64374">
        <ele>336</ele>
        <time>2020-08-17T09:11:32Z</time>
      </trkpt>
      <trkpt lat="46.70287" lon="5.64377">
        <ele>336</ele>
        <time>2020-08-17T09:11:42Z</time>
      </trkpt>
      <trkpt lat="46.70276" lon="5.64375">
        <ele>333</ele>
        <time>2020-08-17T09:11:59Z</time>
      </trkpt>
      <trkpt lat="46.7027" lon="5.64372">
        <ele>333</ele>
        <time>2020-08-17T09:12:05Z</time>
      </trkpt>
      <trkpt lat="46.70265" lon="5.64369">
        <ele>333</ele>
        <time>2020-08-17T09:12:13Z</time>
      </trkpt>
      <trkpt lat="46.70259" lon="5.6437">
        <ele>333</ele>
        <time>2020-08-17T09:12:18Z</time>
      </trkpt>
      <trkpt lat="46.70246" lon="5.64368">
        <ele>333</ele>
        <time>2020-08-17T09:12:33Z</time>
      </trkpt>
      <trkpt lat="46.7024" lon="5.64369">
        <ele>332</ele>
        <time>2020-08-17T09:12:38Z</time>
      </trkpt>
      <trkpt lat="46.70235" lon="5.64374">
        <ele>331</ele>
        <time>2020-08-17T09:12:44Z</time>
      </trkpt>
      <trkpt lat="46.70229" lon="5.64374">
        <ele>330</ele>
        <time>2020-08-17T09:12:52Z</time>
      </trkpt>
      <trkpt lat="46.70223" lon="5.64368">
        <ele>327</ele>
        <time>2020-08-17T09:13:10Z</time>
      </trkpt>
      <trkpt lat="46.70215" lon="5.64358">
        <ele>323</ele>
        <time>2020-08-17T09:13:29Z</time>
      </trkpt>
      <trkpt lat="46.70207" lon="5.64354">
        <ele>322</ele>
        <time>2020-08-17T09:13:38Z</time>
      </trkpt>
      <trkpt lat="46.702" lon="5.64355">
        <ele>321</ele>
        <time>2020-08-17T09:13:41Z</time>
      </trkpt>
      <trkpt lat="46.7019" lon="5.6436">
        <ele>319</ele>
        <time>2020-08-17T09:13:50Z</time>
      </trkpt>
      <trkpt lat="46.70185" lon="5.64352">
        <ele>318</ele>
        <time>2020-08-17T09:14:09Z</time>
      </trkpt>
      <trkpt lat="46.70175" lon="5.64339">
        <ele>319</ele>
        <time>2020-08-17T09:14:24Z</time>
      </trkpt>
      <trkpt lat="46.70156" lon="5.64318">
        <ele>320</ele>
        <time>2020-08-17T09:14:51Z</time>
      </trkpt>
      <trkpt lat="46.7015" lon="5.64313">
        <ele>320</ele>
        <time>2020-08-17T09:14:57Z</time>
      </trkpt>
      <trkpt lat="46.70141" lon="5.64296">
        <ele>320</ele>
        <time>2020-08-17T09:15:18Z</time>
      </trkpt>
      <trkpt lat="46.70119" lon="5.64275">
        <ele>321</ele>
        <time>2020-08-17T09:15:45Z</time>
      </trkpt>
      <trkpt lat="46.70112" lon="5.64259">
        <ele>321</ele>
        <time>2020-08-17T09:15:57Z</time>
      </trkpt>
      <trkpt lat="46.70107" lon="5.6425">
        <ele>321</ele>
        <time>2020-08-17T09:16:04Z</time>
      </trkpt>
      <trkpt lat="46.70101" lon="5.64239">
        <ele>321</ele>
        <time>2020-08-17T09:16:13Z</time>
      </trkpt>
      <trkpt lat="46.70087" lon="5.64229">
        <ele>322</ele>
        <time>2020-08-17T09:16:23Z</time>
      </trkpt>
      <trkpt lat="46.70079" lon="5.64229">
        <ele>322</ele>
        <time>2020-08-17T09:16:29Z</time>
      </trkpt>
      <trkpt lat="46.70064" lon="5.64229">
        <ele>321</ele>
        <time>2020-08-17T09:16:44Z</time>
      </trkpt>
      <trkpt lat="46.7005" lon="5.64219">
        <ele>321</ele>
        <time>2020-08-17T09:17:02Z</time>
      </trkpt>
      <trkpt lat="46.70036" lon="5.64218">
        <ele>321</ele>
        <time>2020-08-17T09:17:16Z</time>
      </trkpt>
      <trkpt lat="46.70028" lon="5.64215">
        <ele>322</ele>
        <time>2020-08-17T09:17:24Z</time>
      </trkpt>
      <trkpt lat="46.70018" lon="5.64215">
        <ele>322</ele>
        <time>2020-08-17T09:17:35Z</time>
      </trkpt>
      <trkpt lat="46.70007" lon="5.64209">
        <ele>322</ele>
        <time>2020-08-17T09:17:49Z</time>
      </trkpt>
      <trkpt lat="46.69997" lon="5.64195">
        <ele>322</ele>
        <time>2020-08-17T09:18:04Z</time>
      </trkpt>
      <trkpt lat="46.69985" lon="5.64187">
        <ele>324</ele>
        <time>2020-08-17T09:18:18Z</time>
      </trkpt>
      <trkpt lat="46.69968" lon="5.64179">
        <ele>323</ele>
        <time>2020-08-17T09:18:40Z</time>
      </trkpt>
      <trkpt lat="46.69959" lon="5.64174">
        <ele>324</ele>
        <time>2020-08-17T09:18:52Z</time>
      </trkpt>
      <trkpt lat="46.69952" lon="5.64177">
        <ele>323</ele>
        <time>2020-08-17T09:19:05Z</time>
      </trkpt>
      <trkpt lat="46.69944" lon="5.64174">
        <ele>324</ele>
        <time>2020-08-17T09:19:13Z</time>
      </trkpt>
      <trkpt lat="46.69936" lon="5.64167">
        <ele>324</ele>
        <time>2020-08-17T09:19:22Z</time>
      </trkpt>
      <trkpt lat="46.69928" lon="5.64165">
        <ele>324</ele>
        <time>2020-08-17T09:19:29Z</time>
      </trkpt>
      <trkpt lat="46.69897" lon="5.64161">
        <ele>323</ele>
        <time>2020-08-17T09:19:57Z</time>
      </trkpt>
      <trkpt lat="46.6989" lon="5.64163">
        <ele>324</ele>
        <time>2020-08-17T09:20:07Z</time>
      </trkpt>
      <trkpt lat="46.69883" lon="5.64155">
        <ele>324</ele>
        <time>2020-08-17T09:20:15Z</time>
      </trkpt>
      <trkpt lat="46.69862" lon="5.6416">
        <ele>324</ele>
        <time>2020-08-17T09:20:29Z</time>
      </trkpt>
      <trkpt lat="46.69856" lon="5.64158">
        <ele>324</ele>
        <time>2020-08-17T09:20:34Z</time>
      </trkpt>
      <trkpt lat="46.69837" lon="5.64165">
        <ele>324</ele>
        <time>2020-08-17T09:20:59Z</time>
      </trkpt>
      <trkpt lat="46.69824" lon="5.64162">
        <ele>325</ele>
        <time>2020-08-17T09:21:13Z</time>
      </trkpt>
      <trkpt lat="46.69816" lon="5.64163">
        <ele>325</ele>
        <time>2020-08-17T09:21:19Z</time>
      </trkpt>
      <trkpt lat="46.6981" lon="5.64166">
        <ele>325</ele>
        <time>2020-08-17T09:21:23Z</time>
      </trkpt>
      <trkpt lat="46.69795" lon="5.64171">
        <ele>325</ele>
        <time>2020-08-17T09:21:33Z</time>
      </trkpt>
      <trkpt lat="46.6979" lon="5.64173">
        <ele>325</ele>
        <time>2020-08-17T09:21:37Z</time>
      </trkpt>
      <trkpt lat="46.69781" lon="5.64176">
        <ele>325</ele>
        <time>2020-08-17T09:21:49Z</time>
      </trkpt>
      <trkpt lat="46.69769" lon="5.64176">
        <ele>326</ele>
        <time>2020-08-17T09:22:04Z</time>
      </trkpt>
      <trkpt lat="46.69761" lon="5.64178">
        <ele>326</ele>
        <time>2020-08-17T09:22:11Z</time>
      </trkpt>
      <trkpt lat="46.69752" lon="5.64172">
        <ele>326</ele>
        <time>2020-08-17T09:22:21Z</time>
      </trkpt>
      <trkpt lat="46.69738" lon="5.64174">
        <ele>326</ele>
        <time>2020-08-17T09:22:39Z</time>
      </trkpt>
      <trkpt lat="46.69723" lon="5.64169">
        <ele>327</ele>
        <time>2020-08-17T09:22:52Z</time>
      </trkpt>
      <trkpt lat="46.69688" lon="5.64165">
        <ele>326</ele>
        <time>2020-08-17T09:23:25Z</time>
      </trkpt>
      <trkpt lat="46.69681" lon="5.64165">
        <ele>326</ele>
        <time>2020-08-17T09:23:30Z</time>
      </trkpt>
      <trkpt lat="46.69673" lon="5.64167">
        <ele>326</ele>
        <time>2020-08-17T09:23:40Z</time>
      </trkpt>
      <trkpt lat="46.69659" lon="5.64157">
        <ele>327</ele>
        <time>2020-08-17T09:23:56Z</time>
      </trkpt>
      <trkpt lat="46.69644" lon="5.64161">
        <ele>327</ele>
        <time>2020-08-17T09:24:10Z</time>
      </trkpt>
      <trkpt lat="46.69629" lon="5.64157">
        <ele>327</ele>
        <time>2020-08-17T09:24:24Z</time>
      </trkpt>
      <trkpt lat="46.69591" lon="5.64135">
        <ele>329</ele>
        <time>2020-08-17T09:25:18Z</time>
      </trkpt>
      <trkpt lat="46.69566" lon="5.6412">
        <ele>330</ele>
        <time>2020-08-17T09:25:50Z</time>
      </trkpt>
      <trkpt lat="46.69539" lon="5.64099">
        <ele>331</ele>
        <time>2020-08-17T09:26:30Z</time>
      </trkpt>
      <trkpt lat="46.69521" lon="5.64095">
        <ele>330</ele>
        <time>2020-08-17T09:26:49Z</time>
      </trkpt>
      <trkpt lat="46.69513" lon="5.64084">
        <ele>331</ele>
        <time>2020-08-17T09:28:06Z</time>
      </trkpt>
      <trkpt lat="46.69507" lon="5.64079">
        <ele>331</ele>
        <time>2020-08-17T09:28:12Z</time>
      </trkpt>
      <trkpt lat="46.69501" lon="5.64076">
        <ele>332</ele>
        <time>2020-08-17T09:28:20Z</time>
      </trkpt>
      <trkpt lat="46.69491" lon="5.64063">
        <ele>332</ele>
        <time>2020-08-17T09:28:36Z</time>
      </trkpt>
      <trkpt lat="46.69487" lon="5.64054">
        <ele>333</ele>
        <time>2020-08-17T09:28:44Z</time>
      </trkpt>
      <trkpt lat="46.69466" lon="5.64042">
        <ele>333</ele>
        <time>2020-08-17T09:29:05Z</time>
      </trkpt>
      <trkpt lat="46.69459" lon="5.64036">
        <ele>333</ele>
        <time>2020-08-17T09:29:12Z</time>
      </trkpt>
      <trkpt lat="46.69446" lon="5.64024">
        <ele>334</ele>
        <time>2020-08-17T09:29:27Z</time>
      </trkpt>
      <trkpt lat="46.69438" lon="5.64014">
        <ele>334</ele>
        <time>2020-08-17T09:29:43Z</time>
      </trkpt>
      <trkpt lat="46.69428" lon="5.64006">
        <ele>334</ele>
        <time>2020-08-17T09:29:55Z</time>
      </trkpt>
      <trkpt lat="46.6942" lon="5.63996">
        <ele>334</ele>
        <time>2020-08-17T09:30:10Z</time>
      </trkpt>
      <trkpt lat="46.69396" lon="5.63972">
        <ele>338</ele>
        <time>2020-08-17T09:30:38Z</time>
      </trkpt>
      <trkpt lat="46.69388" lon="5.63969">
        <ele>338</ele>
        <time>2020-08-17T09:30:44Z</time>
      </trkpt>
      <trkpt lat="46.69381" lon="5.63966">
        <ele>338</ele>
        <time>2020-08-17T09:30:51Z</time>
      </trkpt>
      <trkpt lat="46.69373" lon="5.63965">
        <ele>338</ele>
        <time>2020-08-17T09:31:03Z</time>
      </trkpt>
      <trkpt lat="46.69363" lon="5.6397">
        <ele>338</ele>
        <time>2020-08-17T09:31:17Z</time>
      </trkpt>
      <trkpt lat="46.69354" lon="5.63964">
        <ele>339</ele>
        <time>2020-08-17T09:31:28Z</time>
      </trkpt>
      <trkpt lat="46.69351" lon="5.63954">
        <ele>342</ele>
        <time>2020-08-17T09:31:53Z</time>
      </trkpt>
      <trkpt lat="46.69343" lon="5.63949">
        <ele>347</ele>
        <time>2020-08-17T09:32:35Z</time>
      </trkpt>
      <trkpt lat="46.6933" lon="5.63933">
        <ele>349</ele>
        <time>2020-08-17T09:32:53Z</time>
      </trkpt>
      <trkpt lat="46.69321" lon="5.63935">
        <ele>348</ele>
        <time>2020-08-17T09:33:03Z</time>
      </trkpt>
      <trkpt lat="46.69309" lon="5.63938">
        <ele>347</ele>
        <time>2020-08-17T09:33:17Z</time>
      </trkpt>
      <trkpt lat="46.69301" lon="5.63936">
        <ele>348</ele>
        <time>2020-08-17T09:33:32Z</time>
      </trkpt>
      <trkpt lat="46.69292" lon="5.6393">
        <ele>349</ele>
        <time>2020-08-17T09:33:45Z</time>
      </trkpt>
      <trkpt lat="46.69285" lon="5.63927">
        <ele>350</ele>
        <time>2020-08-17T09:33:52Z</time>
      </trkpt>
      <trkpt lat="46.69277" lon="5.63928">
        <ele>351</ele>
        <time>2020-08-17T09:33:58Z</time>
      </trkpt>
      <trkpt lat="46.69251" lon="5.63921">
        <ele>353</ele>
        <time>2020-08-17T09:34:36Z</time>
      </trkpt>
      <trkpt lat="46.69231" lon="5.63913">
        <ele>356</ele>
        <time>2020-08-17T09:35:01Z</time>
      </trkpt>
      <trkpt lat="46.69217" lon="5.6392">
        <ele>356</ele>
        <time>2020-08-17T09:35:21Z</time>
      </trkpt>
      <trkpt lat="46.69184" lon="5.6389">
        <ele>362</ele>
        <time>2020-08-17T09:36:17Z</time>
      </trkpt>
      <trkpt lat="46.69168" lon="5.63878">
        <ele>366</ele>
        <time>2020-08-17T09:36:53Z</time>
      </trkpt>
      <trkpt lat="46.69151" lon="5.63867">
        <ele>368</ele>
        <time>2020-08-17T09:37:18Z</time>
      </trkpt>
      <trkpt lat="46.69108" lon="5.63848">
        <ele>379</ele>
        <time>2020-08-17T09:38:34Z</time>
      </trkpt>
      <trkpt lat="46.69094" lon="5.63854">
        <ele>381</ele>
        <time>2020-08-17T09:39:36Z</time>
      </trkpt>
      <trkpt lat="46.69079" lon="5.6386">
        <ele>389</ele>
        <time>2020-08-17T09:42:14Z</time>
      </trkpt>
      <trkpt lat="46.69063" lon="5.63862">
        <ele>396</ele>
        <time>2020-08-17T09:43:02Z</time>
      </trkpt>
      <trkpt lat="46.69048" lon="5.63862">
        <ele>401</ele>
        <time>2020-08-17T09:43:40Z</time>
      </trkpt>
      <trkpt lat="46.69043" lon="5.63852">
        <ele>403</ele>
        <time>2020-08-17T09:44:07Z</time>
      </trkpt>
      <trkpt lat="46.69038" lon="5.63847">
        <ele>406</ele>
        <time>2020-08-17T09:44:37Z</time>
      </trkpt>
      <trkpt lat="46.69025" lon="5.6384">
        <ele>406</ele>
        <time>2020-08-17T09:44:50Z</time>
      </trkpt>
      <trkpt lat="46.69017" lon="5.63839">
        <ele>408</ele>
        <time>2020-08-17T09:45:11Z</time>
      </trkpt>
      <trkpt lat="46.69008" lon="5.63815">
        <ele>410</ele>
        <time>2020-08-17T09:45:47Z</time>
      </trkpt>
      <trkpt lat="46.69008" lon="5.63805">
        <ele>410</ele>
        <time>2020-08-17T09:45:59Z</time>
      </trkpt>
      <trkpt lat="46.69002" lon="5.63797">
        <ele>411</ele>
        <time>2020-08-17T09:46:09Z</time>
      </trkpt>
      <trkpt lat="46.68998" lon="5.6379">
        <ele>410</ele>
        <time>2020-08-17T09:46:14Z</time>
      </trkpt>
      <trkpt lat="46.68995" lon="5.63778">
        <ele>410</ele>
        <time>2020-08-17T09:46:24Z</time>
      </trkpt>
      <trkpt lat="46.68986" lon="5.6376">
        <ele>412</ele>
        <time>2020-08-17T09:46:44Z</time>
      </trkpt>
      <trkpt lat="46.68979" lon="5.63754">
        <ele>413</ele>
        <time>2020-08-17T09:47:11Z</time>
      </trkpt>
      <trkpt lat="46.6898" lon="5.63743">
        <ele>413</ele>
        <time>2020-08-17T09:47:38Z</time>
      </trkpt>
      <trkpt lat="46.68972" lon="5.63729">
        <ele>413</ele>
        <time>2020-08-17T09:48:26Z</time>
      </trkpt>
      <trkpt lat="46.68971" lon="5.63729">
        <ele>413</ele>
        <time>2020-08-17T09:52:05Z</time>
      </trkpt>
      <trkpt lat="46.68955" lon="5.63728">
        <ele>415</ele>
        <time>2020-08-17T09:53:16Z</time>
      </trkpt>
      <trkpt lat="46.68947" lon="5.63744">
        <ele>416</ele>
        <time>2020-08-17T09:54:55Z</time>
      </trkpt>
      <trkpt lat="46.68928" lon="5.63739">
        <ele>426</ele>
        <time>2020-08-17T09:58:27Z</time>
      </trkpt>
      <trkpt lat="46.68891" lon="5.6374">
        <ele>438</ele>
        <time>2020-08-17T09:59:39Z</time>
      </trkpt>
      <trkpt lat="46.68885" lon="5.63761">
        <ele>441</ele>
        <time>2020-08-17T10:00:04Z</time>
      </trkpt>
      <trkpt lat="46.68872" lon="5.63777">
        <ele>447</ele>
        <time>2020-08-17T10:00:42Z</time>
      </trkpt>
      <trkpt lat="46.68864" lon="5.63796">
        <ele>451</ele>
        <time>2020-08-17T10:01:06Z</time>
      </trkpt>
      <trkpt lat="46.68851" lon="5.63813">
        <ele>453</ele>
        <time>2020-08-17T10:01:35Z</time>
      </trkpt>
      <trkpt lat="46.68848" lon="5.63834">
        <ele>454</ele>
        <time>2020-08-17T10:01:50Z</time>
      </trkpt>
      <trkpt lat="46.68831" lon="5.63849">
        <ele>455</ele>
        <time>2020-08-17T10:02:03Z</time>
      </trkpt>
      <trkpt lat="46.68839" lon="5.63866">
        <ele>457</ele>
        <time>2020-08-17T10:02:19Z</time>
      </trkpt>
      <trkpt lat="46.68839" lon="5.63904">
        <ele>459</ele>
        <time>2020-08-17T10:02:51Z</time>
      </trkpt>
      <trkpt lat="46.68838" lon="5.63927">
        <ele>460</ele>
        <time>2020-08-17T10:03:12Z</time>
      </trkpt>
      <trkpt lat="46.68842" lon="5.63959">
        <ele>462</ele>
        <time>2020-08-17T10:03:44Z</time>
      </trkpt>
      <trkpt lat="46.68828" lon="5.63964">
        <ele>463</ele>
        <time>2020-08-17T10:03:53Z</time>
      </trkpt>
      <trkpt lat="46.68818" lon="5.63975">
        <ele>465</ele>
        <time>2020-08-17T10:04:08Z</time>
      </trkpt>
      <trkpt lat="46.68832" lon="5.64001">
        <ele>470</ele>
        <time>2020-08-17T10:04:43Z</time>
      </trkpt>
      <trkpt lat="46.68833" lon="5.64039">
        <ele>483</ele>
        <time>2020-08-17T10:06:10Z</time>
      </trkpt>
      <trkpt lat="46.68858" lon="5.64027">
        <ele>503</ele>
        <time>2020-08-17T10:08:13Z</time>
      </trkpt>
      <trkpt lat="46.68848" lon="5.64037">
        <ele>506</ele>
        <time>2020-08-17T10:08:42Z</time>
      </trkpt>
      <trkpt lat="46.68845" lon="5.64048">
        <ele>508</ele>
        <time>2020-08-17T10:08:54Z</time>
      </trkpt>
      <trkpt lat="46.6884" lon="5.64041">
        <ele>511</ele>
        <time>2020-08-17T10:09:26Z</time>
      </trkpt>
      <trkpt lat="46.68846" lon="5.64019">
        <ele>513</ele>
        <time>2020-08-17T10:09:54Z</time>
      </trkpt>
      <trkpt lat="46.68844" lon="5.6401">
        <ele>513</ele>
        <time>2020-08-17T10:10:06Z</time>
      </trkpt>
      <trkpt lat="46.68842" lon="5.64">
        <ele>513</ele>
        <time>2020-08-17T10:10:42Z</time>
      </trkpt>
      <trkpt lat="46.68834" lon="5.63994">
        <ele>514</ele>
        <time>2020-08-17T10:11:12Z</time>
      </trkpt>
      <trkpt lat="46.68832" lon="5.63986">
        <ele>514</ele>
        <time>2020-08-17T10:11:20Z</time>
      </trkpt>
      <trkpt lat="46.6883" lon="5.63986">
        <ele>514</ele>
        <time>2020-08-17T10:13:14Z</time>
      </trkpt>
      <trkpt lat="46.68828" lon="5.63975">
        <ele>513</ele>
        <time>2020-08-17T10:13:52Z</time>
      </trkpt>
      <trkpt lat="46.68832" lon="5.63979">
        <ele>512</ele>
        <time>2020-08-17T10:15:08Z</time>
      </trkpt>
      <trkpt lat="46.68829" lon="5.63985">
        <ele>512</ele>
        <time>2020-08-17T10:16:37Z</time>
      </trkpt>
      <trkpt lat="46.68834" lon="5.63994">
        <ele>510</ele>
        <time>2020-08-17T10:18:31Z</time>
      </trkpt>
      <trkpt lat="46.68838" lon="5.64001">
        <ele>510</ele>
        <time>2020-08-17T10:18:37Z</time>
      </trkpt>
      <trkpt lat="46.6884" lon="5.64019">
        <ele>509</ele>
        <time>2020-08-17T10:18:51Z</time>
      </trkpt>
      <trkpt lat="46.68838" lon="5.64034">
        <ele>507</ele>
        <time>2020-08-17T10:19:03Z</time>
      </trkpt>
      <trkpt lat="46.68841" lon="5.64043">
        <ele>506</ele>
        <time>2020-08-17T10:19:11Z</time>
      </trkpt>
      <trkpt lat="46.68845" lon="5.64053">
        <ele>506</ele>
        <time>2020-08-17T10:19:19Z</time>
      </trkpt>
      <trkpt lat="46.68851" lon="5.64068">
        <ele>506</ele>
        <time>2020-08-17T10:19:30Z</time>
      </trkpt>
      <trkpt lat="46.68846" lon="5.64091">
        <ele>507</ele>
        <time>2020-08-17T10:19:51Z</time>
      </trkpt>
      <trkpt lat="46.68837" lon="5.64109">
        <ele>508</ele>
        <time>2020-08-17T10:20:08Z</time>
      </trkpt>
      <trkpt lat="46.68831" lon="5.64113">
        <ele>508</ele>
        <time>2020-08-17T10:20:12Z</time>
      </trkpt>
      <trkpt lat="46.68828" lon="5.64119">
        <ele>508</ele>
        <time>2020-08-17T10:20:18Z</time>
      </trkpt>
      <trkpt lat="46.68822" lon="5.64127">
        <ele>508</ele>
        <time>2020-08-17T10:20:27Z</time>
      </trkpt>
      <trkpt lat="46.68823" lon="5.64147">
        <ele>508</ele>
        <time>2020-08-17T10:20:37Z</time>
      </trkpt>
      <trkpt lat="46.68829" lon="5.64176">
        <ele>509</ele>
        <time>2020-08-17T10:20:58Z</time>
      </trkpt>
      <trkpt lat="46.68829" lon="5.64196">
        <ele>509</ele>
        <time>2020-08-17T10:21:13Z</time>
      </trkpt>
      <trkpt lat="46.6883" lon="5.64204">
        <ele>510</ele>
        <time>2020-08-17T10:21:19Z</time>
      </trkpt>
      <trkpt lat="46.6883" lon="5.64228">
        <ele>510</ele>
        <time>2020-08-17T10:21:34Z</time>
      </trkpt>
      <trkpt lat="46.6883" lon="5.64238">
        <ele>510</ele>
        <time>2020-08-17T10:21:41Z</time>
      </trkpt>
      <trkpt lat="46.68835" lon="5.64243">
        <ele>510</ele>
        <time>2020-08-17T10:21:46Z</time>
      </trkpt>
      <trkpt lat="46.6884" lon="5.64244">
        <ele>510</ele>
        <time>2020-08-17T10:21:51Z</time>
      </trkpt>
      <trkpt lat="46.68846" lon="5.64243">
        <ele>510</ele>
        <time>2020-08-17T10:21:57Z</time>
      </trkpt>
      <trkpt lat="46.6886" lon="5.64247">
        <ele>512</ele>
        <time>2020-08-17T10:22:12Z</time>
      </trkpt>
      <trkpt lat="46.68866" lon="5.64252">
        <ele>512</ele>
        <time>2020-08-17T10:22:19Z</time>
      </trkpt>
      <trkpt lat="46.68871" lon="5.64258">
        <ele>512</ele>
        <time>2020-08-17T10:22:24Z</time>
      </trkpt>
      <trkpt lat="46.68877" lon="5.64269">
        <ele>513</ele>
        <time>2020-08-17T10:22:34Z</time>
      </trkpt>
      <trkpt lat="46.68879" lon="5.64285">
        <ele>514</ele>
        <time>2020-08-17T10:22:43Z</time>
      </trkpt>
      <trkpt lat="46.68887" lon="5.6433">
        <ele>514</ele>
        <time>2020-08-17T10:23:14Z</time>
      </trkpt>
      <trkpt lat="46.68888" lon="5.6434">
        <ele>514</ele>
        <time>2020-08-17T10:23:21Z</time>
      </trkpt>
      <trkpt lat="46.68887" lon="5.64348">
        <ele>514</ele>
        <time>2020-08-17T10:23:25Z</time>
      </trkpt>
      <trkpt lat="46.68889" lon="5.64366">
        <ele>514</ele>
        <time>2020-08-17T10:23:34Z</time>
      </trkpt>
      <trkpt lat="46.68897" lon="5.64381">
        <ele>514</ele>
        <time>2020-08-17T10:23:45Z</time>
      </trkpt>
      <trkpt lat="46.68932" lon="5.64421">
        <ele>514</ele>
        <time>2020-08-17T10:24:27Z</time>
      </trkpt>
      <trkpt lat="46.68941" lon="5.64421">
        <ele>514</ele>
        <time>2020-08-17T10:24:36Z</time>
      </trkpt>
      <trkpt lat="46.68956" lon="5.64428">
        <ele>515</ele>
        <time>2020-08-17T10:24:51Z</time>
      </trkpt>
      <trkpt lat="46.68984" lon="5.64417">
        <ele>516</ele>
        <time>2020-08-17T10:25:16Z</time>
      </trkpt>
      <trkpt lat="46.68994" lon="5.64402">
        <ele>517</ele>
        <time>2020-08-17T10:25:31Z</time>
      </trkpt>
      <trkpt lat="46.68997" lon="5.64392">
        <ele>517</ele>
        <time>2020-08-17T10:25:36Z</time>
      </trkpt>
      <trkpt lat="46.68996" lon="5.64381">
        <ele>517</ele>
        <time>2020-08-17T10:25:51Z</time>
      </trkpt>
      <trkpt lat="46.69001" lon="5.64379">
        <ele>516</ele>
        <time>2020-08-17T10:28:08Z</time>
      </trkpt>
      <trkpt lat="46.68999" lon="5.64379">
        <ele>516</ele>
        <time>2020-08-17T10:29:58Z</time>
      </trkpt>
      <trkpt lat="46.68993" lon="5.64379">
        <ele>515</ele>
        <time>2020-08-17T10:31:13Z</time>
      </trkpt>
      <trkpt lat="46.68985" lon="5.6438">
        <ele>515</ele>
        <time>2020-08-17T10:31:43Z</time>
      </trkpt>
      <trkpt lat="46.68984" lon="5.64388">
        <ele>515</ele>
        <time>2020-08-17T10:38:41Z</time>
      </trkpt>
      <trkpt lat="46.6899" lon="5.64386">
        <ele>515</ele>
        <time>2020-08-17T10:39:29Z</time>
      </trkpt>
      <trkpt lat="46.6899" lon="5.64386">
        <ele>515</ele>
        <time>2020-08-17T10:42:05Z</time>
      </trkpt>
      <trkpt lat="46.68987" lon="5.64387">
        <ele>515</ele>
        <time>2020-08-17T10:45:40Z</time>
      </trkpt>
      <trkpt lat="46.68985" lon="5.64379">
        <ele>515</ele>
        <time>2020-08-17T10:46:51Z</time>
      </trkpt>
      <trkpt lat="46.68991" lon="5.6438">
        <ele>515</ele>
        <time>2020-08-17T10:48:09Z</time>
      </trkpt>
      <trkpt lat="46.68995" lon="5.64377">
        <ele>515</ele>
        <time>2020-08-17T11:00:24Z</time>
      </trkpt>
      <trkpt lat="46.68998" lon="5.64386">
        <ele>515</ele>
        <time>2020-08-17T11:02:42Z</time>
      </trkpt>
      <trkpt lat="46.69005" lon="5.64379">
        <ele>516</ele>
        <time>2020-08-17T11:04:15Z</time>
      </trkpt>
      <trkpt lat="46.69005" lon="5.64369">
        <ele>516</ele>
        <time>2020-08-17T11:04:39Z</time>
      </trkpt>
      <trkpt lat="46.69004" lon="5.64363">
        <ele>517</ele>
        <time>2020-08-17T11:05:29Z</time>
      </trkpt>
      <trkpt lat="46.69004" lon="5.64363">
        <ele>517</ele>
        <time>2020-08-17T11:05:30Z</time>
      </trkpt>
      <trkpt lat="46.69002" lon="5.64372">
        <ele>516</ele>
        <time>2020-08-17T11:05:50Z</time>
      </trkpt>
      <trkpt lat="46.68996" lon="5.64388">
        <ele>515</ele>
        <time>2020-08-17T11:07:41Z</time>
      </trkpt>
      <trkpt lat="46.69002" lon="5.64393">
        <ele>515</ele>
        <time>2020-08-17T11:08:29Z</time>
      </trkpt>
      <trkpt lat="46.69006" lon="5.64384">
        <ele>515</ele>
        <time>2020-08-17T11:08:39Z</time>
      </trkpt>
      <trkpt lat="46.69005" lon="5.64377">
        <ele>515</ele>
        <time>2020-08-17T11:09:02Z</time>
      </trkpt>
      <trkpt lat="46.69" lon="5.64381">
        <ele>515</ele>
        <time>2020-08-17T11:09:32Z</time>
      </trkpt>
      <trkpt lat="46.68994" lon="5.64383">
        <ele>515</ele>
        <time>2020-08-17T11:09:38Z</time>
      </trkpt>
      <trkpt lat="46.68978" lon="5.64407">
        <ele>514</ele>
        <time>2020-08-17T11:10:03Z</time>
      </trkpt>
      <trkpt lat="46.68977" lon="5.64416">
        <ele>514</ele>
        <time>2020-08-17T11:10:08Z</time>
      </trkpt>
      <trkpt lat="46.68979" lon="5.64424">
        <ele>514</ele>
        <time>2020-08-17T11:10:14Z</time>
      </trkpt>
      <trkpt lat="46.68987" lon="5.64441">
        <ele>514</ele>
        <time>2020-08-17T11:10:24Z</time>
      </trkpt>
      <trkpt lat="46.68989" lon="5.64449">
        <ele>514</ele>
        <time>2020-08-17T11:10:30Z</time>
      </trkpt>
      <trkpt lat="46.68997" lon="5.64463">
        <ele>514</ele>
        <time>2020-08-17T11:10:42Z</time>
      </trkpt>
      <trkpt lat="46.69003" lon="5.64479">
        <ele>514</ele>
        <time>2020-08-17T11:10:52Z</time>
      </trkpt>
      <trkpt lat="46.69011" lon="5.64492">
        <ele>514</ele>
        <time>2020-08-17T11:11:03Z</time>
      </trkpt>
      <trkpt lat="46.69014" lon="5.645">
        <ele>514</ele>
        <time>2020-08-17T11:11:08Z</time>
      </trkpt>
      <trkpt lat="46.69023" lon="5.64516">
        <ele>515</ele>
        <time>2020-08-17T11:11:21Z</time>
      </trkpt>
      <trkpt lat="46.69028" lon="5.64535">
        <ele>515</ele>
        <time>2020-08-17T11:11:32Z</time>
      </trkpt>
      <trkpt lat="46.6903" lon="5.64557">
        <ele>515</ele>
        <time>2020-08-17T11:11:48Z</time>
      </trkpt>
      <trkpt lat="46.69034" lon="5.64564">
        <ele>515</ele>
        <time>2020-08-17T11:11:52Z</time>
      </trkpt>
      <trkpt lat="46.69043" lon="5.64573">
        <ele>515</ele>
        <time>2020-08-17T11:12:01Z</time>
      </trkpt>
      <trkpt lat="46.69048" lon="5.64578">
        <ele>514</ele>
        <time>2020-08-17T11:12:06Z</time>
      </trkpt>
      <trkpt lat="46.69072" lon="5.64588">
        <ele>513</ele>
        <time>2020-08-17T11:12:28Z</time>
      </trkpt>
      <trkpt lat="46.69091" lon="5.64624">
        <ele>512</ele>
        <time>2020-08-17T11:12:52Z</time>
      </trkpt>
      <trkpt lat="46.69091" lon="5.6464">
        <ele>512</ele>
        <time>2020-08-17T11:13:06Z</time>
      </trkpt>
      <trkpt lat="46.69092" lon="5.64652">
        <ele>511</ele>
        <time>2020-08-17T11:13:16Z</time>
      </trkpt>
      <trkpt lat="46.69092" lon="5.6467">
        <ele>510</ele>
        <time>2020-08-17T11:13:26Z</time>
      </trkpt>
      <trkpt lat="46.69088" lon="5.64685">
        <ele>510</ele>
        <time>2020-08-17T11:13:36Z</time>
      </trkpt>
      <trkpt lat="46.69089" lon="5.64713">
        <ele>510</ele>
        <time>2020-08-17T11:13:48Z</time>
      </trkpt>
      <trkpt lat="46.69096" lon="5.64727">
        <ele>509</ele>
        <time>2020-08-17T11:13:58Z</time>
      </trkpt>
      <trkpt lat="46.691" lon="5.64731">
        <ele>509</ele>
        <time>2020-08-17T11:14:03Z</time>
      </trkpt>
      <trkpt lat="46.69106" lon="5.64731">
        <ele>509</ele>
        <time>2020-08-17T11:14:08Z</time>
      </trkpt>
      <trkpt lat="46.69116" lon="5.6474">
        <ele>508</ele>
        <time>2020-08-17T11:14:18Z</time>
      </trkpt>
      <trkpt lat="46.69124" lon="5.64751">
        <ele>508</ele>
        <time>2020-08-17T11:14:26Z</time>
      </trkpt>
      <trkpt lat="46.69135" lon="5.6476">
        <ele>507</ele>
        <time>2020-08-17T11:14:36Z</time>
      </trkpt>
      <trkpt lat="46.69148" lon="5.6478">
        <ele>507</ele>
        <time>2020-08-17T11:14:52Z</time>
      </trkpt>
      <trkpt lat="46.6916" lon="5.6479">
        <ele>508</ele>
        <time>2020-08-17T11:15:06Z</time>
      </trkpt>
      <trkpt lat="46.69165" lon="5.64798">
        <ele>508</ele>
        <time>2020-08-17T11:15:15Z</time>
      </trkpt>
      <trkpt lat="46.69171" lon="5.648">
        <ele>509</ele>
        <time>2020-08-17T11:15:19Z</time>
      </trkpt>
      <trkpt lat="46.69182" lon="5.64807">
        <ele>509</ele>
        <time>2020-08-17T11:15:29Z</time>
      </trkpt>
      <trkpt lat="46.69191" lon="5.64819">
        <ele>509</ele>
        <time>2020-08-17T11:15:44Z</time>
      </trkpt>
      <trkpt lat="46.69195" lon="5.64823">
        <ele>509</ele>
        <time>2020-08-17T11:15:48Z</time>
      </trkpt>
      <trkpt lat="46.69213" lon="5.64845">
        <ele>508</ele>
        <time>2020-08-17T11:16:06Z</time>
      </trkpt>
      <trkpt lat="46.69219" lon="5.64851">
        <ele>507</ele>
        <time>2020-08-17T11:16:14Z</time>
      </trkpt>
      <trkpt lat="46.69229" lon="5.64861">
        <ele>507</ele>
        <time>2020-08-17T11:16:22Z</time>
      </trkpt>
      <trkpt lat="46.69239" lon="5.64871">
        <ele>507</ele>
        <time>2020-08-17T11:16:31Z</time>
      </trkpt>
      <trkpt lat="46.69245" lon="5.64876">
        <ele>507</ele>
        <time>2020-08-17T11:16:40Z</time>
      </trkpt>
      <trkpt lat="46.69261" lon="5.64886">
        <ele>507</ele>
        <time>2020-08-17T11:16:54Z</time>
      </trkpt>
      <trkpt lat="46.69267" lon="5.64887">
        <ele>507</ele>
        <time>2020-08-17T11:16:59Z</time>
      </trkpt>
      <trkpt lat="46.69275" lon="5.64887">
        <ele>507</ele>
        <time>2020-08-17T11:17:07Z</time>
      </trkpt>
      <trkpt lat="46.69293" lon="5.64889">
        <ele>507</ele>
        <time>2020-08-17T11:17:26Z</time>
      </trkpt>
      <trkpt lat="46.69297" lon="5.64895">
        <ele>507</ele>
        <time>2020-08-17T11:17:31Z</time>
      </trkpt>
      <trkpt lat="46.69304" lon="5.64911">
        <ele>507</ele>
        <time>2020-08-17T11:17:39Z</time>
      </trkpt>
      <trkpt lat="46.69311" lon="5.64917">
        <ele>506</ele>
        <time>2020-08-17T11:17:45Z</time>
      </trkpt>
      <trkpt lat="46.69319" lon="5.6493">
        <ele>506</ele>
        <time>2020-08-17T11:17:54Z</time>
      </trkpt>
      <trkpt lat="46.6933" lon="5.6494">
        <ele>506</ele>
        <time>2020-08-17T11:18:08Z</time>
      </trkpt>
      <trkpt lat="46.69337" lon="5.64944">
        <ele>506</ele>
        <time>2020-08-17T11:18:14Z</time>
      </trkpt>
      <trkpt lat="46.69342" lon="5.64951">
        <ele>506</ele>
        <time>2020-08-17T11:18:22Z</time>
      </trkpt>
      <trkpt lat="46.69346" lon="5.64958">
        <ele>506</ele>
        <time>2020-08-17T11:18:28Z</time>
      </trkpt>
      <trkpt lat="46.69355" lon="5.6496">
        <ele>506</ele>
        <time>2020-08-17T11:18:37Z</time>
      </trkpt>
      <trkpt lat="46.69359" lon="5.64965">
        <ele>505</ele>
        <time>2020-08-17T11:18:41Z</time>
      </trkpt>
      <trkpt lat="46.69365" lon="5.64967">
        <ele>505</ele>
        <time>2020-08-17T11:18:46Z</time>
      </trkpt>
      <trkpt lat="46.69372" lon="5.64975">
        <ele>505</ele>
        <time>2020-08-17T11:18:58Z</time>
      </trkpt>
      <trkpt lat="46.69402" lon="5.65009">
        <ele>506</ele>
        <time>2020-08-17T11:19:33Z</time>
      </trkpt>
      <trkpt lat="46.69425" lon="5.65029">
        <ele>507</ele>
        <time>2020-08-17T11:19:52Z</time>
      </trkpt>
      <trkpt lat="46.6943" lon="5.65029">
        <ele>507</ele>
        <time>2020-08-17T11:19:58Z</time>
      </trkpt>
      <trkpt lat="46.69442" lon="5.65039">
        <ele>507</ele>
        <time>2020-08-17T11:20:12Z</time>
      </trkpt>
      <trkpt lat="46.69451" lon="5.65041">
        <ele>508</ele>
        <time>2020-08-17T11:20:23Z</time>
      </trkpt>
      <trkpt lat="46.69456" lon="5.65047">
        <ele>508</ele>
        <time>2020-08-17T11:20:33Z</time>
      </trkpt>
      <trkpt lat="46.69458" lon="5.65035">
        <ele>508</ele>
        <time>2020-08-17T11:20:48Z</time>
      </trkpt>
      <trkpt lat="46.69458" lon="5.65027">
        <ele>508</ele>
        <time>2020-08-17T11:20:56Z</time>
      </trkpt>
      <trkpt lat="46.69461" lon="5.65028">
        <ele>508</ele>
        <time>2020-08-17T11:22:09Z</time>
      </trkpt>
      <trkpt lat="46.69466" lon="5.65055">
        <ele>508</ele>
        <time>2020-08-17T11:22:35Z</time>
      </trkpt>
      <trkpt lat="46.69469" lon="5.65061">
        <ele>508</ele>
        <time>2020-08-17T11:22:40Z</time>
      </trkpt>
      <trkpt lat="46.69472" lon="5.651">
        <ele>507</ele>
        <time>2020-08-17T11:23:07Z</time>
      </trkpt>
      <trkpt lat="46.69472" lon="5.65108">
        <ele>507</ele>
        <time>2020-08-17T11:23:15Z</time>
      </trkpt>
      <trkpt lat="46.69474" lon="5.65117">
        <ele>507</ele>
        <time>2020-08-17T11:23:20Z</time>
      </trkpt>
      <trkpt lat="46.6948" lon="5.65125">
        <ele>507</ele>
        <time>2020-08-17T11:23:27Z</time>
      </trkpt>
      <trkpt lat="46.69488" lon="5.65137">
        <ele>507</ele>
        <time>2020-08-17T11:23:37Z</time>
      </trkpt>
      <trkpt lat="46.69499" lon="5.65144">
        <ele>507</ele>
        <time>2020-08-17T11:23:45Z</time>
      </trkpt>
      <trkpt lat="46.69503" lon="5.6515">
        <ele>507</ele>
        <time>2020-08-17T11:23:50Z</time>
      </trkpt>
      <trkpt lat="46.69509" lon="5.65165">
        <ele>506</ele>
        <time>2020-08-17T11:23:59Z</time>
      </trkpt>
      <trkpt lat="46.69512" lon="5.65174">
        <ele>506</ele>
        <time>2020-08-17T11:24:06Z</time>
      </trkpt>
      <trkpt lat="46.69516" lon="5.65185">
        <ele>505</ele>
        <time>2020-08-17T11:24:19Z</time>
      </trkpt>
      <trkpt lat="46.69519" lon="5.65193">
        <ele>505</ele>
        <time>2020-08-17T11:24:25Z</time>
      </trkpt>
      <trkpt lat="46.69528" lon="5.65204">
        <ele>505</ele>
        <time>2020-08-17T11:24:35Z</time>
      </trkpt>
      <trkpt lat="46.69529" lon="5.65212">
        <ele>505</ele>
        <time>2020-08-17T11:24:43Z</time>
      </trkpt>
      <trkpt lat="46.69534" lon="5.65223">
        <ele>506</ele>
        <time>2020-08-17T11:25:02Z</time>
      </trkpt>
      <trkpt lat="46.69539" lon="5.65226">
        <ele>506</ele>
        <time>2020-08-17T11:25:07Z</time>
      </trkpt>
      <trkpt lat="46.69565" lon="5.6526">
        <ele>505</ele>
        <time>2020-08-17T11:25:39Z</time>
      </trkpt>
      <trkpt lat="46.6957" lon="5.65265">
        <ele>505</ele>
        <time>2020-08-17T11:25:43Z</time>
      </trkpt>
      <trkpt lat="46.69582" lon="5.65271">
        <ele>504</ele>
        <time>2020-08-17T11:25:53Z</time>
      </trkpt>
      <trkpt lat="46.69589" lon="5.65272">
        <ele>504</ele>
        <time>2020-08-17T11:26:00Z</time>
      </trkpt>
      <trkpt lat="46.69595" lon="5.6527">
        <ele>504</ele>
        <time>2020-08-17T11:26:04Z</time>
      </trkpt>
      <trkpt lat="46.69601" lon="5.6527">
        <ele>504</ele>
        <time>2020-08-17T11:26:18Z</time>
      </trkpt>
      <trkpt lat="46.69605" lon="5.65264">
        <ele>504</ele>
        <time>2020-08-17T11:26:39Z</time>
      </trkpt>
      <trkpt lat="46.69603" lon="5.65259">
        <ele>503</ele>
        <time>2020-08-17T11:27:40Z</time>
      </trkpt>
      <trkpt lat="46.69585" lon="5.65256">
        <ele>504</ele>
        <time>2020-08-17T11:27:54Z</time>
      </trkpt>
      <trkpt lat="46.69576" lon="5.65271">
        <ele>503</ele>
        <time>2020-08-17T11:28:03Z</time>
      </trkpt>
      <trkpt lat="46.69574" lon="5.6528">
        <ele>503</ele>
        <time>2020-08-17T11:28:08Z</time>
      </trkpt>
      <trkpt lat="46.6957" lon="5.65299">
        <ele>504</ele>
        <time>2020-08-17T11:28:21Z</time>
      </trkpt>
      <trkpt lat="46.69567" lon="5.65305">
        <ele>504</ele>
        <time>2020-08-17T11:28:27Z</time>
      </trkpt>
      <trkpt lat="46.69564" lon="5.65331">
        <ele>505</ele>
        <time>2020-08-17T11:28:39Z</time>
      </trkpt>
      <trkpt lat="46.69565" lon="5.65339">
        <ele>505</ele>
        <time>2020-08-17T11:28:43Z</time>
      </trkpt>
      <trkpt lat="46.69561" lon="5.65358">
        <ele>504</ele>
        <time>2020-08-17T11:29:00Z</time>
      </trkpt>
      <trkpt lat="46.69559" lon="5.65366">
        <ele>503</ele>
        <time>2020-08-17T11:29:05Z</time>
      </trkpt>
      <trkpt lat="46.69556" lon="5.65375">
        <ele>501</ele>
        <time>2020-08-17T11:29:14Z</time>
      </trkpt>
      <trkpt lat="46.69551" lon="5.6542">
        <ele>501</ele>
        <time>2020-08-17T11:29:44Z</time>
      </trkpt>
      <trkpt lat="46.69551" lon="5.6543">
        <ele>501</ele>
        <time>2020-08-17T11:29:47Z</time>
      </trkpt>
      <trkpt lat="46.69549" lon="5.65438">
        <ele>501</ele>
        <time>2020-08-17T11:30:01Z</time>
      </trkpt>
      <trkpt lat="46.69549" lon="5.6545">
        <ele>501</ele>
        <time>2020-08-17T11:30:14Z</time>
      </trkpt>
      <trkpt lat="46.6955" lon="5.65463">
        <ele>501</ele>
        <time>2020-08-17T11:30:26Z</time>
      </trkpt>
      <trkpt lat="46.6955" lon="5.65479">
        <ele>501</ele>
        <time>2020-08-17T11:30:39Z</time>
      </trkpt>
      <trkpt lat="46.69553" lon="5.65487">
        <ele>500</ele>
        <time>2020-08-17T11:30:45Z</time>
      </trkpt>
      <trkpt lat="46.69556" lon="5.65494">
        <ele>500</ele>
        <time>2020-08-17T11:30:53Z</time>
      </trkpt>
      <trkpt lat="46.69562" lon="5.65521">
        <ele>502</ele>
        <time>2020-08-17T11:31:11Z</time>
      </trkpt>
      <trkpt lat="46.69562" lon="5.65555">
        <ele>504</ele>
        <time>2020-08-17T11:31:35Z</time>
      </trkpt>
      <trkpt lat="46.69547" lon="5.65593">
        <ele>505</ele>
        <time>2020-08-17T11:32:09Z</time>
      </trkpt>
      <trkpt lat="46.69546" lon="5.65601">
        <ele>505</ele>
        <time>2020-08-17T11:32:14Z</time>
      </trkpt>
      <trkpt lat="46.69538" lon="5.65617">
        <ele>505</ele>
        <time>2020-08-17T11:32:29Z</time>
      </trkpt>
      <trkpt lat="46.69534" lon="5.65646">
        <ele>506</ele>
        <time>2020-08-17T11:32:48Z</time>
      </trkpt>
      <trkpt lat="46.69533" lon="5.65672">
        <ele>506</ele>
        <time>2020-08-17T11:33:02Z</time>
      </trkpt>
      <trkpt lat="46.69534" lon="5.65679">
        <ele>506</ele>
        <time>2020-08-17T11:33:07Z</time>
      </trkpt>
      <trkpt lat="46.69537" lon="5.65688">
        <ele>507</ele>
        <time>2020-08-17T11:33:15Z</time>
      </trkpt>
      <trkpt lat="46.69541" lon="5.65693">
        <ele>507</ele>
        <time>2020-08-17T11:33:21Z</time>
      </trkpt>
      <trkpt lat="46.69541" lon="5.65712">
        <ele>507</ele>
        <time>2020-08-17T11:33:39Z</time>
      </trkpt>
      <trkpt lat="46.69544" lon="5.65758">
        <ele>508</ele>
        <time>2020-08-17T11:34:05Z</time>
      </trkpt>
      <trkpt lat="46.69546" lon="5.65772">
        <ele>508</ele>
        <time>2020-08-17T11:34:16Z</time>
      </trkpt>
      <trkpt lat="46.69545" lon="5.65788">
        <ele>508</ele>
        <time>2020-08-17T11:34:26Z</time>
      </trkpt>
      <trkpt lat="46.69541" lon="5.65804">
        <ele>509</ele>
        <time>2020-08-17T11:34:36Z</time>
      </trkpt>
      <trkpt lat="46.69543" lon="5.65833">
        <ele>509</ele>
        <time>2020-08-17T11:34:57Z</time>
      </trkpt>
      <trkpt lat="46.6954" lon="5.65841">
        <ele>508</ele>
        <time>2020-08-17T11:35:02Z</time>
      </trkpt>
      <trkpt lat="46.69536" lon="5.6586">
        <ele>508</ele>
        <time>2020-08-17T11:35:18Z</time>
      </trkpt>
      <trkpt lat="46.69534" lon="5.65867">
        <ele>508</ele>
        <time>2020-08-17T11:35:23Z</time>
      </trkpt>
      <trkpt lat="46.69535" lon="5.65878">
        <ele>507</ele>
        <time>2020-08-17T11:35:31Z</time>
      </trkpt>
      <trkpt lat="46.69542" lon="5.65893">
        <ele>505</ele>
        <time>2020-08-17T11:35:51Z</time>
      </trkpt>
      <trkpt lat="46.69544" lon="5.65901">
        <ele>504</ele>
        <time>2020-08-17T11:35:57Z</time>
      </trkpt>
      <trkpt lat="46.69545" lon="5.6591">
        <ele>503</ele>
        <time>2020-08-17T11:36:02Z</time>
      </trkpt>
      <trkpt lat="46.69544" lon="5.65918">
        <ele>503</ele>
        <time>2020-08-17T11:36:07Z</time>
      </trkpt>
      <trkpt lat="46.69545" lon="5.65935">
        <ele>502</ele>
        <time>2020-08-17T11:36:18Z</time>
      </trkpt>
      <trkpt lat="46.69547" lon="5.65946">
        <ele>501</ele>
        <time>2020-08-17T11:36:26Z</time>
      </trkpt>
      <trkpt lat="46.69551" lon="5.65955">
        <ele>501</ele>
        <time>2020-08-17T11:36:34Z</time>
      </trkpt>
      <trkpt lat="46.69551" lon="5.65965">
        <ele>500</ele>
        <time>2020-08-17T11:36:41Z</time>
      </trkpt>
      <trkpt lat="46.69553" lon="5.65973">
        <ele>500</ele>
        <time>2020-08-17T11:36:46Z</time>
      </trkpt>
      <trkpt lat="46.69557" lon="5.6598">
        <ele>500</ele>
        <time>2020-08-17T11:36:51Z</time>
      </trkpt>
      <trkpt lat="46.69562" lon="5.65992">
        <ele>500</ele>
        <time>2020-08-17T11:37:02Z</time>
      </trkpt>
      <trkpt lat="46.69576" lon="5.6601">
        <ele>501</ele>
        <time>2020-08-17T11:37:17Z</time>
      </trkpt>
      <trkpt lat="46.69582" lon="5.66014">
        <ele>501</ele>
        <time>2020-08-17T11:37:28Z</time>
      </trkpt>
      <trkpt lat="46.69588" lon="5.66014">
        <ele>501</ele>
        <time>2020-08-17T11:37:33Z</time>
      </trkpt>
      <trkpt lat="46.69626" lon="5.66018">
        <ele>503</ele>
        <time>2020-08-17T11:38:09Z</time>
      </trkpt>
      <trkpt lat="46.69636" lon="5.66023">
        <ele>503</ele>
        <time>2020-08-17T11:38:24Z</time>
      </trkpt>
      <trkpt lat="46.69661" lon="5.66022">
        <ele>505</ele>
        <time>2020-08-17T11:38:48Z</time>
      </trkpt>
      <trkpt lat="46.69671" lon="5.6602">
        <ele>505</ele>
        <time>2020-08-17T11:39:00Z</time>
      </trkpt>
      <trkpt lat="46.69675" lon="5.66015">
        <ele>505</ele>
        <time>2020-08-17T11:39:05Z</time>
      </trkpt>
      <trkpt lat="46.69686" lon="5.66013">
        <ele>505</ele>
        <time>2020-08-17T11:39:15Z</time>
      </trkpt>
      <trkpt lat="46.69692" lon="5.6601">
        <ele>505</ele>
        <time>2020-08-17T11:39:24Z</time>
      </trkpt>
      <trkpt lat="46.69707" lon="5.66008">
        <ele>506</ele>
        <time>2020-08-17T11:39:40Z</time>
      </trkpt>
      <trkpt lat="46.69714" lon="5.66017">
        <ele>506</ele>
        <time>2020-08-17T11:39:56Z</time>
      </trkpt>
      <trkpt lat="46.6972" lon="5.66021">
        <ele>506</ele>
        <time>2020-08-17T11:40:05Z</time>
      </trkpt>
      <trkpt lat="46.69729" lon="5.66022">
        <ele>506</ele>
        <time>2020-08-17T11:40:41Z</time>
      </trkpt>
      <trkpt lat="46.69735" lon="5.66027">
        <ele>506</ele>
        <time>2020-08-17T11:41:19Z</time>
      </trkpt>
      <trkpt lat="46.69741" lon="5.66052">
        <ele>504</ele>
        <time>2020-08-17T11:41:48Z</time>
      </trkpt>
      <trkpt lat="46.69745" lon="5.66057">
        <ele>503</ele>
        <time>2020-08-17T11:41:52Z</time>
      </trkpt>
      <trkpt lat="46.69749" lon="5.66066">
        <ele>503</ele>
        <time>2020-08-17T11:42:01Z</time>
      </trkpt>
      <trkpt lat="46.69753" lon="5.66078">
        <ele>501</ele>
        <time>2020-08-17T11:42:13Z</time>
      </trkpt>
      <trkpt lat="46.69758" lon="5.66085">
        <ele>500</ele>
        <time>2020-08-17T11:42:17Z</time>
      </trkpt>
      <trkpt lat="46.69764" lon="5.66089">
        <ele>500</ele>
        <time>2020-08-17T11:42:24Z</time>
      </trkpt>
      <trkpt lat="46.6977" lon="5.66088">
        <ele>499</ele>
        <time>2020-08-17T11:42:33Z</time>
      </trkpt>
      <trkpt lat="46.69781" lon="5.66084">
        <ele>500</ele>
        <time>2020-08-17T11:42:45Z</time>
      </trkpt>
      <trkpt lat="46.69786" lon="5.6608">
        <ele>500</ele>
        <time>2020-08-17T11:42:49Z</time>
      </trkpt>
      <trkpt lat="46.69791" lon="5.66075">
        <ele>500</ele>
        <time>2020-08-17T11:42:53Z</time>
      </trkpt>
      <trkpt lat="46.69807" lon="5.66069">
        <ele>499</ele>
        <time>2020-08-17T11:43:16Z</time>
      </trkpt>
      <trkpt lat="46.69813" lon="5.6607">
        <ele>499</ele>
        <time>2020-08-17T11:43:22Z</time>
      </trkpt>
      <trkpt lat="46.69824" lon="5.66066">
        <ele>498</ele>
        <time>2020-08-17T11:43:35Z</time>
      </trkpt>
      <trkpt lat="46.69829" lon="5.66062">
        <ele>498</ele>
        <time>2020-08-17T11:43:39Z</time>
      </trkpt>
      <trkpt lat="46.69835" lon="5.66063">
        <ele>498</ele>
        <time>2020-08-17T11:43:44Z</time>
      </trkpt>
      <trkpt lat="46.69842" lon="5.66063">
        <ele>498</ele>
        <time>2020-08-17T11:43:49Z</time>
      </trkpt>
      <trkpt lat="46.69852" lon="5.66058">
        <ele>499</ele>
        <time>2020-08-17T11:43:59Z</time>
      </trkpt>
      <trkpt lat="46.69857" lon="5.66052">
        <ele>499</ele>
        <time>2020-08-17T11:44:07Z</time>
      </trkpt>
      <trkpt lat="46.69863" lon="5.66038">
        <ele>500</ele>
        <time>2020-08-17T11:44:31Z</time>
      </trkpt>
      <trkpt lat="46.69867" lon="5.66032">
        <ele>500</ele>
        <time>2020-08-17T11:44:52Z</time>
      </trkpt>
      <trkpt lat="46.69876" lon="5.66032">
        <ele>501</ele>
        <time>2020-08-17T11:45:03Z</time>
      </trkpt>
      <trkpt lat="46.69894" lon="5.66027">
        <ele>500</ele>
        <time>2020-08-17T11:45:18Z</time>
      </trkpt>
      <trkpt lat="46.69901" lon="5.66028">
        <ele>500</ele>
        <time>2020-08-17T11:45:32Z</time>
      </trkpt>
      <trkpt lat="46.69912" lon="5.66027">
        <ele>499</ele>
        <time>2020-08-17T11:46:02Z</time>
      </trkpt>
      <trkpt lat="46.69929" lon="5.66022">
        <ele>500</ele>
        <time>2020-08-17T11:46:10Z</time>
      </trkpt>
      <trkpt lat="46.6994" lon="5.66013">
        <ele>500</ele>
        <time>2020-08-17T11:46:19Z</time>
      </trkpt>
      <trkpt lat="46.69944" lon="5.66005">
        <ele>501</ele>
        <time>2020-08-17T11:46:24Z</time>
      </trkpt>
      <trkpt lat="46.69946" lon="5.65998">
        <ele>501</ele>
        <time>2020-08-17T11:46:30Z</time>
      </trkpt>
      <trkpt lat="46.69951" lon="5.65984">
        <ele>502</ele>
        <time>2020-08-17T11:46:44Z</time>
      </trkpt>
      <trkpt lat="46.69952" lon="5.65973">
        <ele>503</ele>
        <time>2020-08-17T11:46:53Z</time>
      </trkpt>
      <trkpt lat="46.69958" lon="5.65955">
        <ele>503</ele>
        <time>2020-08-17T11:47:06Z</time>
      </trkpt>
      <trkpt lat="46.69969" lon="5.65934">
        <ele>503</ele>
        <time>2020-08-17T11:47:23Z</time>
      </trkpt>
      <trkpt lat="46.6997" lon="5.65924">
        <ele>503</ele>
        <time>2020-08-17T11:47:31Z</time>
      </trkpt>
      <trkpt lat="46.69973" lon="5.65918">
        <ele>503</ele>
        <time>2020-08-17T11:47:38Z</time>
      </trkpt>
      <trkpt lat="46.69979" lon="5.65912">
        <ele>503</ele>
        <time>2020-08-17T11:47:50Z</time>
      </trkpt>
      <trkpt lat="46.69982" lon="5.65892">
        <ele>504</ele>
        <time>2020-08-17T11:48:17Z</time>
      </trkpt>
      <trkpt lat="46.69986" lon="5.65864">
        <ele>504</ele>
        <time>2020-08-17T11:48:28Z</time>
      </trkpt>
      <trkpt lat="46.69986" lon="5.65855">
        <ele>503</ele>
        <time>2020-08-17T11:48:34Z</time>
      </trkpt>
      <trkpt lat="46.69988" lon="5.65847">
        <ele>503</ele>
        <time>2020-08-17T11:48:39Z</time>
      </trkpt>
      <trkpt lat="46.69986" lon="5.6584">
        <ele>503</ele>
        <time>2020-08-17T11:49:23Z</time>
      </trkpt>
      <trkpt lat="46.69992" lon="5.65838">
        <ele>504</ele>
        <time>2020-08-17T11:50:46Z</time>
      </trkpt>
      <trkpt lat="46.69999" lon="5.65836">
        <ele>505</ele>
        <time>2020-08-17T11:51:10Z</time>
      </trkpt>
      <trkpt lat="46.70005" lon="5.65837">
        <ele>505</ele>
        <time>2020-08-17T11:51:13Z</time>
      </trkpt>
      <trkpt lat="46.70011" lon="5.65834">
        <ele>505</ele>
        <time>2020-08-17T11:51:17Z</time>
      </trkpt>
      <trkpt lat="46.70025" lon="5.65824">
        <ele>505</ele>
        <time>2020-08-17T11:51:37Z</time>
      </trkpt>
      <trkpt lat="46.70032" lon="5.65812">
        <ele>505</ele>
        <time>2020-08-17T11:51:48Z</time>
      </trkpt>
      <trkpt lat="46.70045" lon="5.65796">
        <ele>506</ele>
        <time>2020-08-17T11:52:07Z</time>
      </trkpt>
      <trkpt lat="46.70063" lon="5.65781">
        <ele>507</ele>
        <time>2020-08-17T11:52:28Z</time>
      </trkpt>
      <trkpt lat="46.70068" lon="5.65779">
        <ele>507</ele>
        <time>2020-08-17T11:52:33Z</time>
      </trkpt>
      <trkpt lat="46.70075" lon="5.65771">
        <ele>508</ele>
        <time>2020-08-17T11:52:46Z</time>
      </trkpt>
      <trkpt lat="46.70083" lon="5.65769">
        <ele>508</ele>
        <time>2020-08-17T11:52:58Z</time>
      </trkpt>
      <trkpt lat="46.70097" lon="5.65763">
        <ele>508</ele>
        <time>2020-08-17T11:53:12Z</time>
      </trkpt>
      <trkpt lat="46.70101" lon="5.65753">
        <ele>507</ele>
        <time>2020-08-17T11:53:26Z</time>
      </trkpt>
      <trkpt lat="46.70106" lon="5.65745">
        <ele>508</ele>
        <time>2020-08-17T11:53:32Z</time>
      </trkpt>
      <trkpt lat="46.70119" lon="5.65735">
        <ele>507</ele>
        <time>2020-08-17T11:54:17Z</time>
      </trkpt>
      <trkpt lat="46.70122" lon="5.65727">
        <ele>506</ele>
        <time>2020-08-17T11:54:35Z</time>
      </trkpt>
      <trkpt lat="46.70125" lon="5.65718">
        <ele>506</ele>
        <time>2020-08-17T11:54:46Z</time>
      </trkpt>
      <trkpt lat="46.70127" lon="5.6571">
        <ele>505</ele>
        <time>2020-08-17T11:55:02Z</time>
      </trkpt>
      <trkpt lat="46.70134" lon="5.65704">
        <ele>502</ele>
        <time>2020-08-17T11:55:28Z</time>
      </trkpt>
      <trkpt lat="46.70151" lon="5.65696">
        <ele>500</ele>
        <time>2020-08-17T11:55:41Z</time>
      </trkpt>
      <trkpt lat="46.70156" lon="5.65692">
        <ele>500</ele>
        <time>2020-08-17T11:55:47Z</time>
      </trkpt>
      <trkpt lat="46.70173" lon="5.65685">
        <ele>498</ele>
        <time>2020-08-17T11:56:05Z</time>
      </trkpt>
      <trkpt lat="46.70192" lon="5.6566">
        <ele>499</ele>
        <time>2020-08-17T11:56:32Z</time>
      </trkpt>
      <trkpt lat="46.70193" lon="5.65652">
        <ele>499</ele>
        <time>2020-08-17T11:56:37Z</time>
      </trkpt>
      <trkpt lat="46.70194" lon="5.65644">
        <ele>499</ele>
        <time>2020-08-17T11:56:41Z</time>
      </trkpt>
      <trkpt lat="46.70194" lon="5.65635">
        <ele>499</ele>
        <time>2020-08-17T11:56:53Z</time>
      </trkpt>
      <trkpt lat="46.70201" lon="5.65624">
        <ele>500</ele>
        <time>2020-08-17T11:57:19Z</time>
      </trkpt>
      <trkpt lat="46.70204" lon="5.65619">
        <ele>500</ele>
        <time>2020-08-17T11:57:27Z</time>
      </trkpt>
      <trkpt lat="46.70209" lon="5.65602">
        <ele>500</ele>
        <time>2020-08-17T11:57:39Z</time>
      </trkpt>
      <trkpt lat="46.70214" lon="5.65587">
        <ele>498</ele>
        <time>2020-08-17T11:57:54Z</time>
      </trkpt>
      <trkpt lat="46.70222" lon="5.65577">
        <ele>497</ele>
        <time>2020-08-17T11:58:08Z</time>
      </trkpt>
      <trkpt lat="46.70231" lon="5.65566">
        <ele>496</ele>
        <time>2020-08-17T11:58:17Z</time>
      </trkpt>
      <trkpt lat="46.70234" lon="5.65559">
        <ele>496</ele>
        <time>2020-08-17T11:58:22Z</time>
      </trkpt>
      <trkpt lat="46.70239" lon="5.6555">
        <ele>497</ele>
        <time>2020-08-17T11:58:31Z</time>
      </trkpt>
      <trkpt lat="46.70244" lon="5.65546">
        <ele>497</ele>
        <time>2020-08-17T11:58:35Z</time>
      </trkpt>
      <trkpt lat="46.7025" lon="5.65525">
        <ele>499</ele>
        <time>2020-08-17T11:58:53Z</time>
      </trkpt>
      <trkpt lat="46.70248" lon="5.65513">
        <ele>499</ele>
        <time>2020-08-17T11:59:00Z</time>
      </trkpt>
      <trkpt lat="46.70245" lon="5.65507">
        <ele>499</ele>
        <time>2020-08-17T11:59:06Z</time>
      </trkpt>
      <trkpt lat="46.70252" lon="5.65502">
        <ele>499</ele>
        <time>2020-08-17T11:59:50Z</time>
      </trkpt>
      <trkpt lat="46.70257" lon="5.655">
        <ele>499</ele>
        <time>2020-08-17T11:59:56Z</time>
      </trkpt>
      <trkpt lat="46.70262" lon="5.65494">
        <ele>497</ele>
        <time>2020-08-17T12:00:09Z</time>
      </trkpt>
      <trkpt lat="46.70272" lon="5.65493">
        <ele>496</ele>
        <time>2020-08-17T12:00:21Z</time>
      </trkpt>
      <trkpt lat="46.70283" lon="5.6549">
        <ele>496</ele>
        <time>2020-08-17T12:00:31Z</time>
      </trkpt>
      <trkpt lat="46.70288" lon="5.65486">
        <ele>496</ele>
        <time>2020-08-17T12:00:37Z</time>
      </trkpt>
      <trkpt lat="46.703" lon="5.65474">
        <ele>496</ele>
        <time>2020-08-17T12:00:49Z</time>
      </trkpt>
      <trkpt lat="46.70304" lon="5.65466">
        <ele>497</ele>
        <time>2020-08-17T12:00:54Z</time>
      </trkpt>
      <trkpt lat="46.70304" lon="5.65458">
        <ele>497</ele>
        <time>2020-08-17T12:00:59Z</time>
      </trkpt>
      <trkpt lat="46.70307" lon="5.65451">
        <ele>497</ele>
        <time>2020-08-17T12:01:04Z</time>
      </trkpt>
      <trkpt lat="46.70309" lon="5.65442">
        <ele>497</ele>
        <time>2020-08-17T12:01:13Z</time>
      </trkpt>
      <trkpt lat="46.70317" lon="5.65429">
        <ele>496</ele>
        <time>2020-08-17T12:01:27Z</time>
      </trkpt>
      <trkpt lat="46.70319" lon="5.6542">
        <ele>496</ele>
        <time>2020-08-17T12:01:33Z</time>
      </trkpt>
      <trkpt lat="46.70324" lon="5.65413">
        <ele>495</ele>
        <time>2020-08-17T12:01:39Z</time>
      </trkpt>
      <trkpt lat="46.70329" lon="5.65411">
        <ele>495</ele>
        <time>2020-08-17T12:01:45Z</time>
      </trkpt>
      <trkpt lat="46.70332" lon="5.65404">
        <ele>495</ele>
        <time>2020-08-17T12:01:52Z</time>
      </trkpt>
      <trkpt lat="46.70345" lon="5.65395">
        <ele>494</ele>
        <time>2020-08-17T12:02:08Z</time>
      </trkpt>
      <trkpt lat="46.70365" lon="5.65361">
        <ele>494</ele>
        <time>2020-08-17T12:02:36Z</time>
      </trkpt>
      <trkpt lat="46.70389" lon="5.65332">
        <ele>495</ele>
        <time>2020-08-17T12:03:07Z</time>
      </trkpt>
      <trkpt lat="46.70393" lon="5.65325">
        <ele>495</ele>
        <time>2020-08-17T12:03:12Z</time>
      </trkpt>
      <trkpt lat="46.70393" lon="5.65317">
        <ele>496</ele>
        <time>2020-08-17T12:03:51Z</time>
      </trkpt>
      <trkpt lat="46.70402" lon="5.6531">
        <ele>496</ele>
        <time>2020-08-17T12:04:10Z</time>
      </trkpt>
      <trkpt lat="46.70406" lon="5.65305">
        <ele>495</ele>
        <time>2020-08-17T12:04:22Z</time>
      </trkpt>
      <trkpt lat="46.70407" lon="5.65292">
        <ele>495</ele>
        <time>2020-08-17T12:04:34Z</time>
      </trkpt>
      <trkpt lat="46.70412" lon="5.65281">
        <ele>495</ele>
        <time>2020-08-17T12:04:48Z</time>
      </trkpt>
      <trkpt lat="46.7042" lon="5.65261">
        <ele>494</ele>
        <time>2020-08-17T12:05:12Z</time>
      </trkpt>
      <trkpt lat="46.70424" lon="5.65254">
        <ele>493</ele>
        <time>2020-08-17T12:05:17Z</time>
      </trkpt>
      <trkpt lat="46.70432" lon="5.65236">
        <ele>492</ele>
        <time>2020-08-17T12:06:05Z</time>
      </trkpt>
      <trkpt lat="46.70429" lon="5.65246">
        <ele>492</ele>
        <time>2020-08-17T12:08:47Z</time>
      </trkpt>
      <trkpt lat="46.7043" lon="5.65254">
        <ele>491</ele>
        <time>2020-08-17T12:09:09Z</time>
      </trkpt>
      <trkpt lat="46.70431" lon="5.65262">
        <ele>490</ele>
        <time>2020-08-17T12:09:20Z</time>
      </trkpt>
      <trkpt lat="46.70429" lon="5.65275">
        <ele>490</ele>
        <time>2020-08-17T12:09:29Z</time>
      </trkpt>
      <trkpt lat="46.70435" lon="5.65293">
        <ele>490</ele>
        <time>2020-08-17T12:09:50Z</time>
      </trkpt>
      <trkpt lat="46.7044" lon="5.65297">
        <ele>489</ele>
        <time>2020-08-17T12:10:07Z</time>
      </trkpt>
      <trkpt lat="46.70445" lon="5.65328">
        <ele>489</ele>
        <time>2020-08-17T12:10:31Z</time>
      </trkpt>
      <trkpt lat="46.70444" lon="5.65335">
        <ele>489</ele>
        <time>2020-08-17T12:10:35Z</time>
      </trkpt>
      <trkpt lat="46.70444" lon="5.65343">
        <ele>489</ele>
        <time>2020-08-17T12:10:40Z</time>
      </trkpt>
      <trkpt lat="46.70439" lon="5.65361">
        <ele>490</ele>
        <time>2020-08-17T12:10:55Z</time>
      </trkpt>
      <trkpt lat="46.70438" lon="5.65372">
        <ele>490</ele>
        <time>2020-08-17T12:11:03Z</time>
      </trkpt>
      <trkpt lat="46.70429" lon="5.65425">
        <ele>490</ele>
        <time>2020-08-17T12:11:33Z</time>
      </trkpt>
      <trkpt lat="46.70429" lon="5.65459">
        <ele>492</ele>
        <time>2020-08-17T12:11:55Z</time>
      </trkpt>
      <trkpt lat="46.70428" lon="5.6547">
        <ele>493</ele>
        <time>2020-08-17T12:12:06Z</time>
      </trkpt>
      <trkpt lat="46.70431" lon="5.65491">
        <ele>494</ele>
        <time>2020-08-17T12:12:26Z</time>
      </trkpt>
      <trkpt lat="46.70437" lon="5.65527">
        <ele>495</ele>
        <time>2020-08-17T12:12:47Z</time>
      </trkpt>
      <trkpt lat="46.7045" lon="5.65555">
        <ele>495</ele>
        <time>2020-08-17T12:12:59Z</time>
      </trkpt>
      <trkpt lat="46.7047" lon="5.65575">
        <ele>495</ele>
        <time>2020-08-17T12:13:22Z</time>
      </trkpt>
      <trkpt lat="46.70476" lon="5.65579">
        <ele>495</ele>
        <time>2020-08-17T12:13:30Z</time>
      </trkpt>
      <trkpt lat="46.70479" lon="5.65588">
        <ele>496</ele>
        <time>2020-08-17T12:13:39Z</time>
      </trkpt>
      <trkpt lat="46.70488" lon="5.6564">
        <ele>496</ele>
        <time>2020-08-17T12:14:11Z</time>
      </trkpt>
      <trkpt lat="46.7049" lon="5.65647">
        <ele>497</ele>
        <time>2020-08-17T12:14:17Z</time>
      </trkpt>
      <trkpt lat="46.70492" lon="5.6566">
        <ele>497</ele>
        <time>2020-08-17T12:14:31Z</time>
      </trkpt>
      <trkpt lat="46.70495" lon="5.65671">
        <ele>498</ele>
        <time>2020-08-17T12:14:39Z</time>
      </trkpt>
      <trkpt lat="46.70503" lon="5.65693">
        <ele>498</ele>
        <time>2020-08-17T12:14:49Z</time>
      </trkpt>
      <trkpt lat="46.70507" lon="5.6571">
        <ele>496</ele>
        <time>2020-08-17T12:14:59Z</time>
      </trkpt>
      <trkpt lat="46.70511" lon="5.65716">
        <ele>496</ele>
        <time>2020-08-17T12:15:05Z</time>
      </trkpt>
      <trkpt lat="46.7052" lon="5.65723">
        <ele>496</ele>
        <time>2020-08-17T12:15:18Z</time>
      </trkpt>
      <trkpt lat="46.70524" lon="5.65727">
        <ele>496</ele>
        <time>2020-08-17T12:15:24Z</time>
      </trkpt>
      <trkpt lat="46.70538" lon="5.65732">
        <ele>497</ele>
        <time>2020-08-17T12:15:35Z</time>
      </trkpt>
      <trkpt lat="46.70543" lon="5.65729">
        <ele>497</ele>
        <time>2020-08-17T12:15:43Z</time>
      </trkpt>
      <trkpt lat="46.70554" lon="5.65741">
        <ele>496</ele>
        <time>2020-08-17T12:15:54Z</time>
      </trkpt>
      <trkpt lat="46.7056" lon="5.65745">
        <ele>495</ele>
        <time>2020-08-17T12:16:03Z</time>
      </trkpt>
      <trkpt lat="46.70576" lon="5.65751">
        <ele>495</ele>
        <time>2020-08-17T12:16:18Z</time>
      </trkpt>
      <trkpt lat="46.70586" lon="5.65761">
        <ele>494</ele>
        <time>2020-08-17T12:16:31Z</time>
      </trkpt>
      <trkpt lat="46.70594" lon="5.6578">
        <ele>493</ele>
        <time>2020-08-17T12:16:45Z</time>
      </trkpt>
      <trkpt lat="46.70602" lon="5.6579">
        <ele>493</ele>
        <time>2020-08-17T12:16:55Z</time>
      </trkpt>
      <trkpt lat="46.70604" lon="5.65798">
        <ele>493</ele>
        <time>2020-08-17T12:17:01Z</time>
      </trkpt>
      <trkpt lat="46.70608" lon="5.65817">
        <ele>493</ele>
        <time>2020-08-17T12:17:13Z</time>
      </trkpt>
      <trkpt lat="46.7062" lon="5.65848">
        <ele>493</ele>
        <time>2020-08-17T12:17:37Z</time>
      </trkpt>
      <trkpt lat="46.70632" lon="5.65882">
        <ele>493</ele>
        <time>2020-08-17T12:18:02Z</time>
      </trkpt>
      <trkpt lat="46.70635" lon="5.65889">
        <ele>493</ele>
        <time>2020-08-17T12:18:08Z</time>
      </trkpt>
      <trkpt lat="46.70633" lon="5.65899">
        <ele>494</ele>
        <time>2020-08-17T12:18:22Z</time>
      </trkpt>
      <trkpt lat="46.7063" lon="5.65917">
        <ele>494</ele>
        <time>2020-08-17T12:18:34Z</time>
      </trkpt>
      <trkpt lat="46.70627" lon="5.65928">
        <ele>494</ele>
        <time>2020-08-17T12:18:42Z</time>
      </trkpt>
      <trkpt lat="46.70627" lon="5.65933">
        <ele>494</ele>
        <time>2020-08-17T12:18:45Z</time>
      </trkpt>
      <trkpt lat="46.7063" lon="5.65939">
        <ele>493</ele>
        <time>2020-08-17T12:18:55Z</time>
      </trkpt>
      <trkpt lat="46.70637" lon="5.65942">
        <ele>494</ele>
        <time>2020-08-17T12:18:59Z</time>
      </trkpt>
      <trkpt lat="46.70641" lon="5.65941">
        <ele>494</ele>
        <time>2020-08-17T12:19:02Z</time>
      </trkpt>
      <trkpt lat="46.70647" lon="5.65939">
        <ele>494</ele>
        <time>2020-08-17T12:19:08Z</time>
      </trkpt>
      <trkpt lat="46.70688" lon="5.65952">
        <ele>497</ele>
        <time>2020-08-17T12:19:47Z</time>
      </trkpt>
      <trkpt lat="46.70707" lon="5.65952">
        <ele>498</ele>
        <time>2020-08-17T12:20:05Z</time>
      </trkpt>
      <trkpt lat="46.70718" lon="5.65948">
        <ele>499</ele>
        <time>2020-08-17T12:20:16Z</time>
      </trkpt>
      <trkpt lat="46.70725" lon="5.65949">
        <ele>499</ele>
        <time>2020-08-17T12:20:22Z</time>
      </trkpt>
      <trkpt lat="46.70745" lon="5.65946">
        <ele>499</ele>
        <time>2020-08-17T12:20:41Z</time>
      </trkpt>
      <trkpt lat="46.70751" lon="5.65942">
        <ele>499</ele>
        <time>2020-08-17T12:20:47Z</time>
      </trkpt>
      <trkpt lat="46.70762" lon="5.65939">
        <ele>500</ele>
        <time>2020-08-17T12:20:58Z</time>
      </trkpt>
      <trkpt lat="46.70773" lon="5.65933">
        <ele>501</ele>
        <time>2020-08-17T12:21:09Z</time>
      </trkpt>
      <trkpt lat="46.70778" lon="5.65933">
        <ele>501</ele>
        <time>2020-08-17T12:21:13Z</time>
      </trkpt>
      <trkpt lat="46.70788" lon="5.6593">
        <ele>501</ele>
        <time>2020-08-17T12:21:22Z</time>
      </trkpt>
      <trkpt lat="46.7082" lon="5.65909">
        <ele>502</ele>
        <time>2020-08-17T12:21:55Z</time>
      </trkpt>
      <trkpt lat="46.70855" lon="5.65891">
        <ele>503</ele>
        <time>2020-08-17T12:22:31Z</time>
      </trkpt>
      <trkpt lat="46.70876" lon="5.65875">
        <ele>503</ele>
        <time>2020-08-17T12:22:53Z</time>
      </trkpt>
      <trkpt lat="46.7088" lon="5.6587">
        <ele>503</ele>
        <time>2020-08-17T12:22:58Z</time>
      </trkpt>
      <trkpt lat="46.70892" lon="5.6585">
        <ele>502</ele>
        <time>2020-08-17T12:23:15Z</time>
      </trkpt>
      <trkpt lat="46.70906" lon="5.65833">
        <ele>502</ele>
        <time>2020-08-17T12:23:32Z</time>
      </trkpt>
      <trkpt lat="46.70925" lon="5.65791">
        <ele>502</ele>
        <time>2020-08-17T12:24:03Z</time>
      </trkpt>
      <trkpt lat="46.70928" lon="5.65785">
        <ele>502</ele>
        <time>2020-08-17T12:24:07Z</time>
      </trkpt>
      <trkpt lat="46.70933" lon="5.65779">
        <ele>502</ele>
        <time>2020-08-17T12:24:13Z</time>
      </trkpt>
      <trkpt lat="46.70938" lon="5.65771">
        <ele>501</ele>
        <time>2020-08-17T12:24:20Z</time>
      </trkpt>
      <trkpt lat="46.70939" lon="5.65762">
        <ele>501</ele>
        <time>2020-08-17T12:24:24Z</time>
      </trkpt>
      <trkpt lat="46.70948" lon="5.65737">
        <ele>500</ele>
        <time>2020-08-17T12:24:45Z</time>
      </trkpt>
      <trkpt lat="46.70951" lon="5.6573">
        <ele>501</ele>
        <time>2020-08-17T12:24:50Z</time>
      </trkpt>
      <trkpt lat="46.70957" lon="5.65715">
        <ele>500</ele>
        <time>2020-08-17T12:25:01Z</time>
      </trkpt>
      <trkpt lat="46.7096" lon="5.65705">
        <ele>500</ele>
        <time>2020-08-17T12:25:06Z</time>
      </trkpt>
      <trkpt lat="46.7097" lon="5.65665">
        <ele>498</ele>
        <time>2020-08-17T12:25:32Z</time>
      </trkpt>
      <trkpt lat="46.70973" lon="5.65629">
        <ele>498</ele>
        <time>2020-08-17T12:25:52Z</time>
      </trkpt>
      <trkpt lat="46.70972" lon="5.65621">
        <ele>498</ele>
        <time>2020-08-17T12:25:56Z</time>
      </trkpt>
      <trkpt lat="46.70976" lon="5.65573">
        <ele>497</ele>
        <time>2020-08-17T12:26:37Z</time>
      </trkpt>
      <trkpt lat="46.70977" lon="5.65556">
        <ele>497</ele>
        <time>2020-08-17T12:26:45Z</time>
      </trkpt>
      <trkpt lat="46.70977" lon="5.65548">
        <ele>497</ele>
        <time>2020-08-17T12:26:51Z</time>
      </trkpt>
      <trkpt lat="46.70985" lon="5.65497">
        <ele>497</ele>
        <time>2020-08-17T12:27:21Z</time>
      </trkpt>
      <trkpt lat="46.70984" lon="5.65488">
        <ele>497</ele>
        <time>2020-08-17T12:27:26Z</time>
      </trkpt>
      <trkpt lat="46.70983" lon="5.65462">
        <ele>497</ele>
        <time>2020-08-17T12:27:41Z</time>
      </trkpt>
      <trkpt lat="46.7098" lon="5.65444">
        <ele>497</ele>
        <time>2020-08-17T12:27:51Z</time>
      </trkpt>
      <trkpt lat="46.70981" lon="5.65431">
        <ele>497</ele>
        <time>2020-08-17T12:27:59Z</time>
      </trkpt>
      <trkpt lat="46.70975" lon="5.65376">
        <ele>497</ele>
        <time>2020-08-17T12:28:30Z</time>
      </trkpt>
      <trkpt lat="46.70976" lon="5.65367">
        <ele>497</ele>
        <time>2020-08-17T12:28:36Z</time>
      </trkpt>
      <trkpt lat="46.70972" lon="5.65313">
        <ele>498</ele>
        <time>2020-08-17T12:29:09Z</time>
      </trkpt>
      <trkpt lat="46.70971" lon="5.6526">
        <ele>499</ele>
        <time>2020-08-17T12:29:41Z</time>
      </trkpt>
      <trkpt lat="46.70971" lon="5.65204">
        <ele>498</ele>
        <time>2020-08-17T12:30:15Z</time>
      </trkpt>
      <trkpt lat="46.70969" lon="5.65192">
        <ele>498</ele>
        <time>2020-08-17T12:30:24Z</time>
      </trkpt>
      <trkpt lat="46.70968" lon="5.65182">
        <ele>498</ele>
        <time>2020-08-17T12:30:35Z</time>
      </trkpt>
      <trkpt lat="46.7097" lon="5.65172">
        <ele>497</ele>
        <time>2020-08-17T12:30:55Z</time>
      </trkpt>
      <trkpt lat="46.70978" lon="5.65174">
        <ele>497</ele>
        <time>2020-08-17T12:31:42Z</time>
      </trkpt>
      <trkpt lat="46.70993" lon="5.65171">
        <ele>497</ele>
        <time>2020-08-17T12:32:01Z</time>
      </trkpt>
      <trkpt lat="46.70991" lon="5.65172">
        <ele>496</ele>
        <time>2020-08-17T12:36:56Z</time>
      </trkpt>
      <trkpt lat="46.70999" lon="5.65172">
        <ele>496</ele>
        <time>2020-08-17T12:37:50Z</time>
      </trkpt>
      <trkpt lat="46.71006" lon="5.65177">
        <ele>496</ele>
        <time>2020-08-17T12:38:06Z</time>
      </trkpt>
      <trkpt lat="46.71015" lon="5.65179">
        <ele>496</ele>
        <time>2020-08-17T12:38:17Z</time>
      </trkpt>
      <trkpt lat="46.71023" lon="5.65174">
        <ele>496</ele>
        <time>2020-08-17T12:38:36Z</time>
      </trkpt>
      <trkpt lat="46.71028" lon="5.65166">
        <ele>496</ele>
        <time>2020-08-17T12:38:46Z</time>
      </trkpt>
      <trkpt lat="46.71034" lon="5.65161">
        <ele>496</ele>
        <time>2020-08-17T12:38:51Z</time>
      </trkpt>
      <trkpt lat="46.71043" lon="5.65147">
        <ele>496</ele>
        <time>2020-08-17T12:39:05Z</time>
      </trkpt>
      <trkpt lat="46.71058" lon="5.65111">
        <ele>494</ele>
        <time>2020-08-17T12:39:31Z</time>
      </trkpt>
      <trkpt lat="46.71069" lon="5.65099">
        <ele>494</ele>
        <time>2020-08-17T12:39:42Z</time>
      </trkpt>
      <trkpt lat="46.71071" lon="5.65091">
        <ele>494</ele>
        <time>2020-08-17T12:39:47Z</time>
      </trkpt>
      <trkpt lat="46.71083" lon="5.65068">
        <ele>494</ele>
        <time>2020-08-17T12:40:06Z</time>
      </trkpt>
      <trkpt lat="46.71088" lon="5.65063">
        <ele>494</ele>
        <time>2020-08-17T12:40:11Z</time>
      </trkpt>
      <trkpt lat="46.71091" lon="5.65056">
        <ele>494</ele>
        <time>2020-08-17T12:40:17Z</time>
      </trkpt>
      <trkpt lat="46.71119" lon="5.6502">
        <ele>493</ele>
        <time>2020-08-17T12:40:51Z</time>
      </trkpt>
      <trkpt lat="46.7113" lon="5.64999">
        <ele>493</ele>
        <time>2020-08-17T12:41:08Z</time>
      </trkpt>
      <trkpt lat="46.71136" lon="5.64994">
        <ele>493</ele>
        <time>2020-08-17T12:41:13Z</time>
      </trkpt>
      <trkpt lat="46.71158" lon="5.64968">
        <ele>494</ele>
        <time>2020-08-17T12:41:40Z</time>
      </trkpt>
      <trkpt lat="46.71163" lon="5.64964">
        <ele>494</ele>
        <time>2020-08-17T12:41:45Z</time>
      </trkpt>
      <trkpt lat="46.71167" lon="5.64957">
        <ele>494</ele>
        <time>2020-08-17T12:41:51Z</time>
      </trkpt>
      <trkpt lat="46.71184" lon="5.64944">
        <ele>494</ele>
        <time>2020-08-17T12:42:09Z</time>
      </trkpt>
      <trkpt lat="46.71212" lon="5.649">
        <ele>496</ele>
        <time>2020-08-17T12:42:43Z</time>
      </trkpt>
      <trkpt lat="46.71234" lon="5.64868">
        <ele>497</ele>
        <time>2020-08-17T12:43:14Z</time>
      </trkpt>
      <trkpt lat="46.71239" lon="5.64853">
        <ele>498</ele>
        <time>2020-08-17T12:43:26Z</time>
      </trkpt>
      <trkpt lat="46.71265" lon="5.64813">
        <ele>499</ele>
        <time>2020-08-17T12:44:00Z</time>
      </trkpt>
      <trkpt lat="46.71289" lon="5.64772">
        <ele>499</ele>
        <time>2020-08-17T12:44:35Z</time>
      </trkpt>
      <trkpt lat="46.71311" lon="5.64734">
        <ele>498</ele>
        <time>2020-08-17T12:45:06Z</time>
      </trkpt>
      <trkpt lat="46.71331" lon="5.6468">
        <ele>495</ele>
        <time>2020-08-17T12:45:40Z</time>
      </trkpt>
      <trkpt lat="46.71338" lon="5.64661">
        <ele>493</ele>
        <time>2020-08-17T12:45:54Z</time>
      </trkpt>
      <trkpt lat="46.71339" lon="5.64652">
        <ele>493</ele>
        <time>2020-08-17T12:45:59Z</time>
      </trkpt>
      <trkpt lat="46.71339" lon="5.64643">
        <ele>493</ele>
        <time>2020-08-17T12:46:04Z</time>
      </trkpt>
      <trkpt lat="46.7134" lon="5.64638">
        <ele>492</ele>
        <time>2020-08-17T12:46:32Z</time>
      </trkpt>
      <trkpt lat="46.71359" lon="5.64617">
        <ele>491</ele>
        <time>2020-08-17T12:46:53Z</time>
      </trkpt>
      <trkpt lat="46.71364" lon="5.64605">
        <ele>491</ele>
        <time>2020-08-17T12:47:02Z</time>
      </trkpt>
      <trkpt lat="46.71359" lon="5.64555">
        <ele>490</ele>
        <time>2020-08-17T12:47:43Z</time>
      </trkpt>
      <trkpt lat="46.71361" lon="5.64544">
        <ele>490</ele>
        <time>2020-08-17T12:47:50Z</time>
      </trkpt>
      <trkpt lat="46.71359" lon="5.64525">
        <ele>491</ele>
        <time>2020-08-17T12:48:04Z</time>
      </trkpt>
      <trkpt lat="46.7136" lon="5.64517">
        <ele>491</ele>
        <time>2020-08-17T12:48:08Z</time>
      </trkpt>
      <trkpt lat="46.71359" lon="5.64505">
        <ele>492</ele>
        <time>2020-08-17T12:48:16Z</time>
      </trkpt>
      <trkpt lat="46.71354" lon="5.64501">
        <ele>492</ele>
        <time>2020-08-17T12:48:24Z</time>
      </trkpt>
      <trkpt lat="46.71348" lon="5.645">
        <ele>492</ele>
        <time>2020-08-17T12:48:28Z</time>
      </trkpt>
      <trkpt lat="46.71342" lon="5.645">
        <ele>492</ele>
        <time>2020-08-17T12:48:33Z</time>
      </trkpt>
      <trkpt lat="46.71337" lon="5.64495">
        <ele>492</ele>
        <time>2020-08-17T12:48:38Z</time>
      </trkpt>
      <trkpt lat="46.7133" lon="5.64493">
        <ele>491</ele>
        <time>2020-08-17T12:48:50Z</time>
      </trkpt>
      <trkpt lat="46.71318" lon="5.64491">
        <ele>491</ele>
        <time>2020-08-17T12:49:09Z</time>
      </trkpt>
      <trkpt lat="46.71312" lon="5.6449">
        <ele>491</ele>
        <time>2020-08-17T12:49:23Z</time>
      </trkpt>
      <trkpt lat="46.71303" lon="5.64482">
        <ele>491</ele>
        <time>2020-08-17T12:49:35Z</time>
      </trkpt>
      <trkpt lat="46.71296" lon="5.64483">
        <ele>491</ele>
        <time>2020-08-17T12:49:55Z</time>
      </trkpt>
      <trkpt lat="46.71294" lon="5.6449">
        <ele>491</ele>
        <time>2020-08-17T12:50:49Z</time>
      </trkpt>
      <trkpt lat="46.71298" lon="5.64495">
        <ele>491</ele>
        <time>2020-08-17T12:53:13Z</time>
      </trkpt>
      <trkpt lat="46.71302" lon="5.64501">
        <ele>491</ele>
        <time>2020-08-17T12:53:31Z</time>
      </trkpt>
      <trkpt lat="46.7131" lon="5.64503">
        <ele>490</ele>
        <time>2020-08-17T12:55:13Z</time>
      </trkpt>
      <trkpt lat="46.71333" lon="5.64511">
        <ele>490</ele>
        <time>2020-08-17T12:55:39Z</time>
      </trkpt>
      <trkpt lat="46.71342" lon="5.64512">
        <ele>491</ele>
        <time>2020-08-17T12:55:50Z</time>
      </trkpt>
      <trkpt lat="46.71348" lon="5.64508">
        <ele>491</ele>
        <time>2020-08-17T12:55:56Z</time>
      </trkpt>
      <trkpt lat="46.71352" lon="5.64502">
        <ele>491</ele>
        <time>2020-08-17T12:56:02Z</time>
      </trkpt>
      <trkpt lat="46.71356" lon="5.64496">
        <ele>491</ele>
        <time>2020-08-17T12:56:06Z</time>
      </trkpt>
      <trkpt lat="46.71362" lon="5.64494">
        <ele>491</ele>
        <time>2020-08-17T12:56:10Z</time>
      </trkpt>
      <trkpt lat="46.71366" lon="5.64485">
        <ele>491</ele>
        <time>2020-08-17T12:56:16Z</time>
      </trkpt>
      <trkpt lat="46.71369" lon="5.64478">
        <ele>492</ele>
        <time>2020-08-17T12:56:20Z</time>
      </trkpt>
      <trkpt lat="46.71373" lon="5.6447">
        <ele>492</ele>
        <time>2020-08-17T12:56:28Z</time>
      </trkpt>
      <trkpt lat="46.71375" lon="5.64461">
        <ele>492</ele>
        <time>2020-08-17T12:56:34Z</time>
      </trkpt>
      <trkpt lat="46.71372" lon="5.64454">
        <ele>492</ele>
        <time>2020-08-17T12:57:13Z</time>
      </trkpt>
      <trkpt lat="46.71391" lon="5.64439">
        <ele>495</ele>
        <time>2020-08-17T13:00:30Z</time>
      </trkpt>
      <trkpt lat="46.71421" lon="5.64416">
        <ele>497</ele>
        <time>2020-08-17T13:01:01Z</time>
      </trkpt>
      <trkpt lat="46.71426" lon="5.64413">
        <ele>497</ele>
        <time>2020-08-17T13:01:07Z</time>
      </trkpt>
      <trkpt lat="46.71433" lon="5.64413">
        <ele>497</ele>
        <time>2020-08-17T13:01:13Z</time>
      </trkpt>
      <trkpt lat="46.71438" lon="5.64415">
        <ele>497</ele>
        <time>2020-08-17T13:01:17Z</time>
      </trkpt>
      <trkpt lat="46.71444" lon="5.64414">
        <ele>497</ele>
        <time>2020-08-17T13:01:23Z</time>
      </trkpt>
      <trkpt lat="46.71448" lon="5.64407">
        <ele>497</ele>
        <time>2020-08-17T13:01:28Z</time>
      </trkpt>
      <trkpt lat="46.71454" lon="5.64397">
        <ele>496</ele>
        <time>2020-08-17T13:01:35Z</time>
      </trkpt>
      <trkpt lat="46.7146" lon="5.64394">
        <ele>497</ele>
        <time>2020-08-17T13:01:40Z</time>
      </trkpt>
      <trkpt lat="46.71471" lon="5.64395">
        <ele>497</ele>
        <time>2020-08-17T13:01:50Z</time>
      </trkpt>
      <trkpt lat="46.71476" lon="5.64392">
        <ele>497</ele>
        <time>2020-08-17T13:01:54Z</time>
      </trkpt>
      <trkpt lat="46.71506" lon="5.64397">
        <ele>495</ele>
        <time>2020-08-17T13:02:22Z</time>
      </trkpt>
      <trkpt lat="46.71523" lon="5.64401">
        <ele>495</ele>
        <time>2020-08-17T13:02:39Z</time>
      </trkpt>
      <trkpt lat="46.71531" lon="5.64406">
        <ele>494</ele>
        <time>2020-08-17T13:02:47Z</time>
      </trkpt>
      <trkpt lat="46.71536" lon="5.64413">
        <ele>494</ele>
        <time>2020-08-17T13:02:52Z</time>
      </trkpt>
      <trkpt lat="46.71545" lon="5.64415">
        <ele>495</ele>
        <time>2020-08-17T13:03:02Z</time>
      </trkpt>
      <trkpt lat="46.7155" lon="5.6442">
        <ele>494</ele>
        <time>2020-08-17T13:03:07Z</time>
      </trkpt>
      <trkpt lat="46.71554" lon="5.64429">
        <ele>494</ele>
        <time>2020-08-17T13:03:16Z</time>
      </trkpt>
      <trkpt lat="46.71566" lon="5.64441">
        <ele>494</ele>
        <time>2020-08-17T13:03:29Z</time>
      </trkpt>
      <trkpt lat="46.71602" lon="5.64459">
        <ele>494</ele>
        <time>2020-08-17T13:04:01Z</time>
      </trkpt>
      <trkpt lat="46.7163" lon="5.64475">
        <ele>495</ele>
        <time>2020-08-17T13:04:28Z</time>
      </trkpt>
      <trkpt lat="46.71647" lon="5.64482">
        <ele>495</ele>
        <time>2020-08-17T13:04:44Z</time>
      </trkpt>
      <trkpt lat="46.71652" lon="5.64485">
        <ele>495</ele>
        <time>2020-08-17T13:04:49Z</time>
      </trkpt>
      <trkpt lat="46.71687" lon="5.64492">
        <ele>496</ele>
        <time>2020-08-17T13:05:19Z</time>
      </trkpt>
      <trkpt lat="46.71709" lon="5.64486">
        <ele>496</ele>
        <time>2020-08-17T13:05:38Z</time>
      </trkpt>
      <trkpt lat="46.71715" lon="5.64488">
        <ele>496</ele>
        <time>2020-08-17T13:05:44Z</time>
      </trkpt>
      <trkpt lat="46.7172" lon="5.64487">
        <ele>496</ele>
        <time>2020-08-17T13:05:49Z</time>
      </trkpt>
      <trkpt lat="46.71736" lon="5.64479">
        <ele>496</ele>
        <time>2020-08-17T13:06:05Z</time>
      </trkpt>
      <trkpt lat="46.71748" lon="5.64477">
        <ele>496</ele>
        <time>2020-08-17T13:06:15Z</time>
      </trkpt>
      <trkpt lat="46.71764" lon="5.64476">
        <ele>496</ele>
        <time>2020-08-17T13:06:30Z</time>
      </trkpt>
      <trkpt lat="46.71781" lon="5.64471">
        <ele>496</ele>
        <time>2020-08-17T13:06:46Z</time>
      </trkpt>
      <trkpt lat="46.71785" lon="5.64464">
        <ele>497</ele>
        <time>2020-08-17T13:06:51Z</time>
      </trkpt>
      <trkpt lat="46.71788" lon="5.64445">
        <ele>497</ele>
        <time>2020-08-17T13:07:04Z</time>
      </trkpt>
      <trkpt lat="46.71795" lon="5.64418">
        <ele>498</ele>
        <time>2020-08-17T13:07:25Z</time>
      </trkpt>
      <trkpt lat="46.71797" lon="5.6441">
        <ele>499</ele>
        <time>2020-08-17T13:07:30Z</time>
      </trkpt>
      <trkpt lat="46.71809" lon="5.64384">
        <ele>499</ele>
        <time>2020-08-17T13:07:55Z</time>
      </trkpt>
      <trkpt lat="46.71815" lon="5.64377">
        <ele>498</ele>
        <time>2020-08-17T13:08:02Z</time>
      </trkpt>
      <trkpt lat="46.71818" lon="5.64349">
        <ele>497</ele>
        <time>2020-08-17T13:08:20Z</time>
      </trkpt>
      <trkpt lat="46.71824" lon="5.64336">
        <ele>496</ele>
        <time>2020-08-17T13:08:31Z</time>
      </trkpt>
      <trkpt lat="46.71828" lon="5.6431">
        <ele>497</ele>
        <time>2020-08-17T13:08:45Z</time>
      </trkpt>
      <trkpt lat="46.71826" lon="5.64291">
        <ele>496</ele>
        <time>2020-08-17T13:08:59Z</time>
      </trkpt>
      <trkpt lat="46.71832" lon="5.64266">
        <ele>494</ele>
        <time>2020-08-17T13:09:19Z</time>
      </trkpt>
      <trkpt lat="46.71841" lon="5.64247">
        <ele>492</ele>
        <time>2020-08-17T13:09:39Z</time>
      </trkpt>
      <trkpt lat="46.71849" lon="5.64235">
        <ele>492</ele>
        <time>2020-08-17T13:09:50Z</time>
      </trkpt>
      <trkpt lat="46.71853" lon="5.64232">
        <ele>491</ele>
        <time>2020-08-17T13:09:55Z</time>
      </trkpt>
      <trkpt lat="46.71885" lon="5.64218">
        <ele>489</ele>
        <time>2020-08-17T13:10:28Z</time>
      </trkpt>
      <trkpt lat="46.71897" lon="5.64215">
        <ele>488</ele>
        <time>2020-08-17T13:10:39Z</time>
      </trkpt>
      <trkpt lat="46.71904" lon="5.64201">
        <ele>487</ele>
        <time>2020-08-17T13:10:50Z</time>
      </trkpt>
      <trkpt lat="46.71906" lon="5.64193">
        <ele>486</ele>
        <time>2020-08-17T13:10:56Z</time>
      </trkpt>
      <trkpt lat="46.71906" lon="5.64184">
        <ele>485</ele>
        <time>2020-08-17T13:11:05Z</time>
      </trkpt>
      <trkpt lat="46.71911" lon="5.64161">
        <ele>484</ele>
        <time>2020-08-17T13:11:21Z</time>
      </trkpt>
      <trkpt lat="46.71915" lon="5.64146">
        <ele>483</ele>
        <time>2020-08-17T13:11:31Z</time>
      </trkpt>
      <trkpt lat="46.71915" lon="5.64137">
        <ele>483</ele>
        <time>2020-08-17T13:11:37Z</time>
      </trkpt>
      <trkpt lat="46.71922" lon="5.64111">
        <ele>482</ele>
        <time>2020-08-17T13:11:55Z</time>
      </trkpt>
      <trkpt lat="46.71928" lon="5.64082">
        <ele>480</ele>
        <time>2020-08-17T13:12:14Z</time>
      </trkpt>
      <trkpt lat="46.71942" lon="5.64043">
        <ele>477</ele>
        <time>2020-08-17T13:12:45Z</time>
      </trkpt>
      <trkpt lat="46.71946" lon="5.64036">
        <ele>477</ele>
        <time>2020-08-17T13:12:51Z</time>
      </trkpt>
      <trkpt lat="46.71952" lon="5.64011">
        <ele>475</ele>
        <time>2020-08-17T13:13:06Z</time>
      </trkpt>
      <trkpt lat="46.71959" lon="5.64001">
        <ele>473</ele>
        <time>2020-08-17T13:13:21Z</time>
      </trkpt>
      <trkpt lat="46.71964" lon="5.63995">
        <ele>471</ele>
        <time>2020-08-17T13:13:28Z</time>
      </trkpt>
      <trkpt lat="46.71969" lon="5.63991">
        <ele>470</ele>
        <time>2020-08-17T13:13:34Z</time>
      </trkpt>
      <trkpt lat="46.71976" lon="5.63984">
        <ele>469</ele>
        <time>2020-08-17T13:13:43Z</time>
      </trkpt>
      <trkpt lat="46.71997" lon="5.63981">
        <ele>466</ele>
        <time>2020-08-17T13:14:07Z</time>
      </trkpt>
      <trkpt lat="46.72006" lon="5.63977">
        <ele>464</ele>
        <time>2020-08-17T13:14:16Z</time>
      </trkpt>
      <trkpt lat="46.72013" lon="5.63978">
        <ele>463</ele>
        <time>2020-08-17T13:14:22Z</time>
      </trkpt>
      <trkpt lat="46.72018" lon="5.63974">
        <ele>463</ele>
        <time>2020-08-17T13:14:26Z</time>
      </trkpt>
      <trkpt lat="46.72024" lon="5.63969">
        <ele>463</ele>
        <time>2020-08-17T13:14:29Z</time>
      </trkpt>
      <trkpt lat="46.72031" lon="5.63967">
        <ele>462</ele>
        <time>2020-08-17T13:14:41Z</time>
      </trkpt>
      <trkpt lat="46.72053" lon="5.6397">
        <ele>459</ele>
        <time>2020-08-17T13:15:11Z</time>
      </trkpt>
      <trkpt lat="46.7206" lon="5.63968">
        <ele>458</ele>
        <time>2020-08-17T13:15:19Z</time>
      </trkpt>
      <trkpt lat="46.72062" lon="5.63948">
        <ele>455</ele>
        <time>2020-08-17T13:15:30Z</time>
      </trkpt>
      <trkpt lat="46.72059" lon="5.63941">
        <ele>454</ele>
        <time>2020-08-17T13:15:35Z</time>
      </trkpt>
      <trkpt lat="46.72035" lon="5.63917">
        <ele>447</ele>
        <time>2020-08-17T13:16:07Z</time>
      </trkpt>
      <trkpt lat="46.7201" lon="5.63897">
        <ele>442</ele>
        <time>2020-08-17T13:16:33Z</time>
      </trkpt>
      <trkpt lat="46.72002" lon="5.63885">
        <ele>440</ele>
        <time>2020-08-17T13:16:42Z</time>
      </trkpt>
      <trkpt lat="46.71997" lon="5.63883">
        <ele>439</ele>
        <time>2020-08-17T13:16:48Z</time>
      </trkpt>
      <trkpt lat="46.71994" lon="5.63875">
        <ele>438</ele>
        <time>2020-08-17T13:16:53Z</time>
      </trkpt>
      <trkpt lat="46.7199" lon="5.6387">
        <ele>437</ele>
        <time>2020-08-17T13:16:58Z</time>
      </trkpt>
      <trkpt lat="46.71971" lon="5.63862">
        <ele>433</ele>
        <time>2020-08-17T13:17:20Z</time>
      </trkpt>
      <trkpt lat="46.71958" lon="5.63851">
        <ele>431</ele>
        <time>2020-08-17T13:17:38Z</time>
      </trkpt>
      <trkpt lat="46.71952" lon="5.63843">
        <ele>429</ele>
        <time>2020-08-17T13:17:50Z</time>
      </trkpt>
      <trkpt lat="46.71941" lon="5.63835">
        <ele>425</ele>
        <time>2020-08-17T13:18:04Z</time>
      </trkpt>
      <trkpt lat="46.71933" lon="5.63832">
        <ele>423</ele>
        <time>2020-08-17T13:18:12Z</time>
      </trkpt>
      <trkpt lat="46.71922" lon="5.63821">
        <ele>420</ele>
        <time>2020-08-17T13:18:23Z</time>
      </trkpt>
      <trkpt lat="46.71905" lon="5.63812">
        <ele>415</ele>
        <time>2020-08-17T13:18:43Z</time>
      </trkpt>
      <trkpt lat="46.71901" lon="5.63803">
        <ele>413</ele>
        <time>2020-08-17T13:18:51Z</time>
      </trkpt>
      <trkpt lat="46.7188" lon="5.63785">
        <ele>407</ele>
        <time>2020-08-17T13:19:15Z</time>
      </trkpt>
      <trkpt lat="46.71873" lon="5.63777">
        <ele>404</ele>
        <time>2020-08-17T13:19:25Z</time>
      </trkpt>
      <trkpt lat="46.71863" lon="5.63768">
        <ele>402</ele>
        <time>2020-08-17T13:19:37Z</time>
      </trkpt>
      <trkpt lat="46.71858" lon="5.63765">
        <ele>401</ele>
        <time>2020-08-17T13:19:42Z</time>
      </trkpt>
      <trkpt lat="46.71829" lon="5.63736">
        <ele>394</ele>
        <time>2020-08-17T13:20:14Z</time>
      </trkpt>
      <trkpt lat="46.71823" lon="5.63731">
        <ele>392</ele>
        <time>2020-08-17T13:20:22Z</time>
      </trkpt>
      <trkpt lat="46.71809" lon="5.63722">
        <ele>389</ele>
        <time>2020-08-17T13:20:36Z</time>
      </trkpt>
      <trkpt lat="46.71781" lon="5.63693">
        <ele>380</ele>
        <time>2020-08-17T13:21:09Z</time>
      </trkpt>
      <trkpt lat="46.71771" lon="5.63687">
        <ele>378</ele>
        <time>2020-08-17T13:21:19Z</time>
      </trkpt>
      <trkpt lat="46.71757" lon="5.63668">
        <ele>375</ele>
        <time>2020-08-17T13:21:32Z</time>
      </trkpt>
      <trkpt lat="46.71744" lon="5.63665">
        <ele>372</ele>
        <time>2020-08-17T13:21:44Z</time>
      </trkpt>
      <trkpt lat="46.71729" lon="5.63668">
        <ele>371</ele>
        <time>2020-08-17T13:21:55Z</time>
      </trkpt>
      <trkpt lat="46.7172" lon="5.63664">
        <ele>370</ele>
        <time>2020-08-17T13:22:05Z</time>
      </trkpt>
      <trkpt lat="46.71702" lon="5.6364">
        <ele>365</ele>
        <time>2020-08-17T13:22:35Z</time>
      </trkpt>
      <trkpt lat="46.7167" lon="5.63617">
        <ele>358</ele>
        <time>2020-08-17T13:23:07Z</time>
      </trkpt>
      <trkpt lat="46.71654" lon="5.63616">
        <ele>356</ele>
        <time>2020-08-17T13:23:19Z</time>
      </trkpt>
      <trkpt lat="46.71642" lon="5.63604">
        <ele>354</ele>
        <time>2020-08-17T13:23:27Z</time>
      </trkpt>
      <trkpt lat="46.71633" lon="5.63604">
        <ele>352</ele>
        <time>2020-08-17T13:23:35Z</time>
      </trkpt>
      <trkpt lat="46.71614" lon="5.636">
        <ele>349</ele>
        <time>2020-08-17T13:24:02Z</time>
      </trkpt>
      <trkpt lat="46.71609" lon="5.63595">
        <ele>349</ele>
        <time>2020-08-17T13:24:06Z</time>
      </trkpt>
      <trkpt lat="46.71601" lon="5.63592">
        <ele>347</ele>
        <time>2020-08-17T13:24:13Z</time>
      </trkpt>
      <trkpt lat="46.71577" lon="5.6357">
        <ele>343</ele>
        <time>2020-08-17T13:24:36Z</time>
      </trkpt>
      <trkpt lat="46.7157" lon="5.63567">
        <ele>341</ele>
        <time>2020-08-17T13:24:56Z</time>
      </trkpt>
      <trkpt lat="46.71563" lon="5.63568">
        <ele>340</ele>
        <time>2020-08-17T13:25:02Z</time>
      </trkpt>
      <trkpt lat="46.71552" lon="5.63565">
        <ele>338</ele>
        <time>2020-08-17T13:25:13Z</time>
      </trkpt>
      <trkpt lat="46.7155" lon="5.63553">
        <ele>334</ele>
        <time>2020-08-17T13:25:33Z</time>
      </trkpt>
      <trkpt lat="46.71549" lon="5.63541">
        <ele>331</ele>
        <time>2020-08-17T13:25:46Z</time>
      </trkpt>
      <trkpt lat="46.71548" lon="5.63527">
        <ele>329</ele>
        <time>2020-08-17T13:25:59Z</time>
      </trkpt>
      <trkpt lat="46.71546" lon="5.63516">
        <ele>328</ele>
        <time>2020-08-17T13:26:07Z</time>
      </trkpt>
      <trkpt lat="46.71548" lon="5.63505">
        <ele>327</ele>
        <time>2020-08-17T13:26:12Z</time>
      </trkpt>
      <trkpt lat="46.71544" lon="5.63499">
        <ele>326</ele>
        <time>2020-08-17T13:26:18Z</time>
      </trkpt>
      <trkpt lat="46.71537" lon="5.63499">
        <ele>326</ele>
        <time>2020-08-17T13:26:26Z</time>
      </trkpt>
      <trkpt lat="46.71522" lon="5.63507">
        <ele>324</ele>
        <time>2020-08-17T13:27:12Z</time>
      </trkpt>
      <trkpt lat="46.71516" lon="5.63508">
        <ele>324</ele>
        <time>2020-08-17T13:27:17Z</time>
      </trkpt>
      <trkpt lat="46.715" lon="5.63517">
        <ele>323</ele>
        <time>2020-08-17T13:27:34Z</time>
      </trkpt>
      <trkpt lat="46.71493" lon="5.63521">
        <ele>322</ele>
        <time>2020-08-17T13:27:48Z</time>
      </trkpt>
      <trkpt lat="46.71487" lon="5.63529">
        <ele>319</ele>
        <time>2020-08-17T13:28:30Z</time>
      </trkpt>
      <trkpt lat="46.71428" lon="5.63542">
        <ele>311</ele>
        <time>2020-08-17T13:29:22Z</time>
      </trkpt>
      <trkpt lat="46.71398" lon="5.63541">
        <ele>306</ele>
        <time>2020-08-17T13:29:48Z</time>
      </trkpt>
      <trkpt lat="46.71383" lon="5.63543">
        <ele>305</ele>
        <time>2020-08-17T13:29:59Z</time>
      </trkpt>
      <trkpt lat="46.71376" lon="5.63549">
        <ele>304</ele>
        <time>2020-08-17T13:30:05Z</time>
      </trkpt>
      <trkpt lat="46.71343" lon="5.63564">
        <ele>299</ele>
        <time>2020-08-17T13:30:46Z</time>
      </trkpt>
      <trkpt lat="46.71328" lon="5.63555">
        <ele>297</ele>
        <time>2020-08-17T13:30:59Z</time>
      </trkpt>
      <trkpt lat="46.71315" lon="5.63564">
        <ele>296</ele>
        <time>2020-08-17T13:31:11Z</time>
      </trkpt>
      <trkpt lat="46.71306" lon="5.63584">
        <ele>296</ele>
        <time>2020-08-17T13:31:22Z</time>
      </trkpt>
      <trkpt lat="46.71294" lon="5.63594">
        <ele>296</ele>
        <time>2020-08-17T13:31:38Z</time>
      </trkpt>
      <trkpt lat="46.7127" lon="5.63603">
        <ele>295</ele>
        <time>2020-08-17T13:32:08Z</time>
      </trkpt>
      <trkpt lat="46.71256" lon="5.63608">
        <ele>295</ele>
        <time>2020-08-17T13:32:26Z</time>
      </trkpt>
      <trkpt lat="46.7125" lon="5.63609">
        <ele>291</ele>
        <time>2020-08-17T13:40:01Z</time>
      </trkpt>
    </trkseg>
  </trk>
</gpx>